<?xml version="1.0" encoding="UTF-8" standalone="no" ?>
<gpx xmlns="http://www.topografix.com/GPX/1/1" xmlns:xsi="http://www.w3.org/2001/XMLSchema-instance" xsi:schemaLocation="http://www.topografix.com/GPX/1/1 http://www.topografix.com/GPX/1/1/gpx.xsd" version="1.1" creator="VisuGPX - https://www.visugpx.com">
  <metadata>
    <name>skirando cret du rey</name>
    <desc><![CDATA[depart entre granier et laval (sans 4x4, passe pas jusqu\'à laval). neige très soufflée ou dure ou cartonnée presque partout (montée comme descente), à part 200m de dénivellé sous antécime (presque transfo). super paysage, mais les conditions de neige sont pas top. erreur topo à la descente vers Pré Jeune (contourner p2121 par Nord plutôt) avec les amis.]]></desc>
  </metadata>
  <trk>
    <name><![CDATA[Traces enregistrées avec OSMTracker pour Android™]]></name>
    <trkseg>
      <trkpt lat="45.59317" lon="6.64828">
        <ele>1435.9</ele>
        <time>2013-12-08T08:14:35.000Z</time>
      </trkpt>
      <trkpt lat="45.59321" lon="6.64821">
        <ele>1422.9</ele>
        <time>2013-12-08T08:15:06.000Z</time>
      </trkpt>
      <trkpt lat="45.59311" lon="6.64822">
        <ele>1498.9</ele>
        <time>2013-12-08T08:15:35.000Z</time>
      </trkpt>
      <trkpt lat="45.59312" lon="6.64827">
        <ele>1499.2</ele>
        <time>2013-12-08T08:16:06.000Z</time>
      </trkpt>
      <trkpt lat="45.59312" lon="6.64822">
        <ele>1502.4</ele>
        <time>2013-12-08T08:16:37.000Z</time>
      </trkpt>
      <trkpt lat="45.59308" lon="6.64822">
        <ele>1502.4</ele>
        <time>2013-12-08T08:17:08.000Z</time>
      </trkpt>
      <trkpt lat="45.59308" lon="6.64822">
        <ele>1502.4</ele>
        <time>2013-12-08T08:17:39.000Z</time>
      </trkpt>
      <trkpt lat="45.59308" lon="6.64823">
        <ele>1502.4</ele>
        <time>2013-12-08T08:18:10.000Z</time>
      </trkpt>
      <trkpt lat="45.59308" lon="6.64823">
        <ele>1502.5</ele>
        <time>2013-12-08T08:18:41.000Z</time>
      </trkpt>
      <trkpt lat="45.59308" lon="6.64823">
        <ele>1502.5</ele>
        <time>2013-12-08T08:19:12.000Z</time>
      </trkpt>
      <trkpt lat="45.59306" lon="6.64822">
        <ele>1508.9</ele>
        <time>2013-12-08T08:19:42.000Z</time>
      </trkpt>
      <trkpt lat="45.59309" lon="6.64824">
        <ele>1510.1</ele>
        <time>2013-12-08T08:20:13.000Z</time>
      </trkpt>
      <trkpt lat="45.59309" lon="6.64824">
        <ele>1510.2</ele>
        <time>2013-12-08T08:20:43.000Z</time>
      </trkpt>
      <trkpt lat="45.59312" lon="6.64826">
        <ele>1515.4</ele>
        <time>2013-12-08T08:21:14.000Z</time>
      </trkpt>
      <trkpt lat="45.59312" lon="6.64825">
        <ele>1515.5</ele>
        <time>2013-12-08T08:21:46.000Z</time>
      </trkpt>
      <trkpt lat="45.59312" lon="6.64825">
        <ele>1515.5</ele>
        <time>2013-12-08T08:22:17.000Z</time>
      </trkpt>
      <trkpt lat="45.59311" lon="6.64825">
        <ele>1515.5</ele>
        <time>2013-12-08T08:22:48.000Z</time>
      </trkpt>
      <trkpt lat="45.59311" lon="6.64819">
        <ele>1514</ele>
        <time>2013-12-08T08:23:19.000Z</time>
      </trkpt>
      <trkpt lat="45.59319" lon="6.64812">
        <ele>1508.9</ele>
        <time>2013-12-08T08:23:50.000Z</time>
      </trkpt>
      <trkpt lat="45.59319" lon="6.64812">
        <ele>1508</ele>
        <time>2013-12-08T08:24:21.000Z</time>
      </trkpt>
      <trkpt lat="45.59317" lon="6.64809">
        <ele>1508</ele>
        <time>2013-12-08T08:24:52.000Z</time>
      </trkpt>
      <trkpt lat="45.59334" lon="6.64786">
        <ele>1508.9</ele>
        <time>2013-12-08T08:25:22.000Z</time>
      </trkpt>
      <trkpt lat="45.59362" lon="6.64766">
        <ele>1518.6</ele>
        <time>2013-12-08T08:25:53.000Z</time>
      </trkpt>
      <trkpt lat="45.59394" lon="6.64746">
        <ele>1519.7</ele>
        <time>2013-12-08T08:26:24.000Z</time>
      </trkpt>
      <trkpt lat="45.59422" lon="6.64725">
        <ele>1520.3</ele>
        <time>2013-12-08T08:26:55.000Z</time>
      </trkpt>
      <trkpt lat="45.59442" lon="6.64699">
        <ele>1522.2</ele>
        <time>2013-12-08T08:27:26.000Z</time>
      </trkpt>
      <trkpt lat="45.59458" lon="6.64667">
        <ele>1522.7</ele>
        <time>2013-12-08T08:27:57.000Z</time>
      </trkpt>
      <trkpt lat="45.59475" lon="6.64631">
        <ele>1525.7</ele>
        <time>2013-12-08T08:28:28.000Z</time>
      </trkpt>
      <trkpt lat="45.59488" lon="6.64597">
        <ele>1528</ele>
        <time>2013-12-08T08:28:58.000Z</time>
      </trkpt>
      <trkpt lat="45.5951" lon="6.64579">
        <ele>1536.5</ele>
        <time>2013-12-08T08:29:29.000Z</time>
      </trkpt>
      <trkpt lat="45.59526" lon="6.64545">
        <ele>1536.9</ele>
        <time>2013-12-08T08:30:00.000Z</time>
      </trkpt>
      <trkpt lat="45.59536" lon="6.64513">
        <ele>1540.7</ele>
        <time>2013-12-08T08:30:31.000Z</time>
      </trkpt>
      <trkpt lat="45.59536" lon="6.64513">
        <ele>1541</ele>
        <time>2013-12-08T08:31:01.000Z</time>
      </trkpt>
      <trkpt lat="45.59536" lon="6.64513">
        <ele>1541</ele>
        <time>2013-12-08T08:31:32.000Z</time>
      </trkpt>
      <trkpt lat="45.59536" lon="6.64513">
        <ele>1541</ele>
        <time>2013-12-08T08:32:03.000Z</time>
      </trkpt>
      <trkpt lat="45.5954" lon="6.64514">
        <ele>1541.1</ele>
        <time>2013-12-08T08:32:34.000Z</time>
      </trkpt>
      <trkpt lat="45.59545" lon="6.64543">
        <ele>1545.5</ele>
        <time>2013-12-08T08:33:05.000Z</time>
      </trkpt>
      <trkpt lat="45.59555" lon="6.64549">
        <ele>1548.3</ele>
        <time>2013-12-08T08:33:36.000Z</time>
      </trkpt>
      <trkpt lat="45.59563" lon="6.6452">
        <ele>1548.9</ele>
        <time>2013-12-08T08:34:06.000Z</time>
      </trkpt>
      <trkpt lat="45.59571" lon="6.64486">
        <ele>1553.5</ele>
        <time>2013-12-08T08:34:37.000Z</time>
      </trkpt>
      <trkpt lat="45.59581" lon="6.64461">
        <ele>1555.4</ele>
        <time>2013-12-08T08:35:07.000Z</time>
      </trkpt>
      <trkpt lat="45.59595" lon="6.64471">
        <ele>1557.4</ele>
        <time>2013-12-08T08:35:38.000Z</time>
      </trkpt>
      <trkpt lat="45.59595" lon="6.64497">
        <ele>1561</ele>
        <time>2013-12-08T08:36:08.000Z</time>
      </trkpt>
      <trkpt lat="45.59597" lon="6.64534">
        <ele>1565.7</ele>
        <time>2013-12-08T08:36:39.000Z</time>
      </trkpt>
      <trkpt lat="45.59604" lon="6.64558">
        <ele>1575.8</ele>
        <time>2013-12-08T08:37:10.000Z</time>
      </trkpt>
      <trkpt lat="45.59614" lon="6.64544">
        <ele>1578.9</ele>
        <time>2013-12-08T08:37:40.000Z</time>
      </trkpt>
      <trkpt lat="45.59625" lon="6.64508">
        <ele>1579</ele>
        <time>2013-12-08T08:38:11.000Z</time>
      </trkpt>
      <trkpt lat="45.59637" lon="6.6447">
        <ele>1581</ele>
        <time>2013-12-08T08:38:42.000Z</time>
      </trkpt>
      <trkpt lat="45.59652" lon="6.64435">
        <ele>1587</ele>
        <time>2013-12-08T08:39:12.000Z</time>
      </trkpt>
      <trkpt lat="45.59669" lon="6.64409">
        <ele>1593.2</ele>
        <time>2013-12-08T08:39:43.000Z</time>
      </trkpt>
      <trkpt lat="45.59693" lon="6.64392">
        <ele>1596</ele>
        <time>2013-12-08T08:40:14.000Z</time>
      </trkpt>
      <trkpt lat="45.59717" lon="6.64373">
        <ele>1602.5</ele>
        <time>2013-12-08T08:40:44.000Z</time>
      </trkpt>
      <trkpt lat="45.59734" lon="6.64356">
        <ele>1604.9</ele>
        <time>2013-12-08T08:41:14.000Z</time>
      </trkpt>
      <trkpt lat="45.59756" lon="6.64331">
        <ele>1606.8</ele>
        <time>2013-12-08T08:41:45.000Z</time>
      </trkpt>
      <trkpt lat="45.59781" lon="6.64315">
        <ele>1607.9</ele>
        <time>2013-12-08T08:42:16.000Z</time>
      </trkpt>
      <trkpt lat="45.59808" lon="6.64295">
        <ele>1607.9</ele>
        <time>2013-12-08T08:42:47.000Z</time>
      </trkpt>
      <trkpt lat="45.59837" lon="6.6428">
        <ele>1607.9</ele>
        <time>2013-12-08T08:43:18.000Z</time>
      </trkpt>
      <trkpt lat="45.59865" lon="6.6425">
        <ele>1608.2</ele>
        <time>2013-12-08T08:43:49.000Z</time>
      </trkpt>
      <trkpt lat="45.59885" lon="6.6421">
        <ele>1610.6</ele>
        <time>2013-12-08T08:44:20.000Z</time>
      </trkpt>
      <trkpt lat="45.59899" lon="6.64173">
        <ele>1612.2</ele>
        <time>2013-12-08T08:44:51.000Z</time>
      </trkpt>
      <trkpt lat="45.59912" lon="6.64138">
        <ele>1614.2</ele>
        <time>2013-12-08T08:45:23.000Z</time>
      </trkpt>
      <trkpt lat="45.59934" lon="6.64104">
        <ele>1619.5</ele>
        <time>2013-12-08T08:45:54.000Z</time>
      </trkpt>
      <trkpt lat="45.59956" lon="6.64076">
        <ele>1622.8</ele>
        <time>2013-12-08T08:46:24.000Z</time>
      </trkpt>
      <trkpt lat="45.59975" lon="6.64058">
        <ele>1626.2</ele>
        <time>2013-12-08T08:46:55.000Z</time>
      </trkpt>
      <trkpt lat="45.59996" lon="6.64038">
        <ele>1627.3</ele>
        <time>2013-12-08T08:47:25.000Z</time>
      </trkpt>
      <trkpt lat="45.60024" lon="6.64016">
        <ele>1629.2</ele>
        <time>2013-12-08T08:47:56.000Z</time>
      </trkpt>
      <trkpt lat="45.60051" lon="6.63997">
        <ele>1633.1</ele>
        <time>2013-12-08T08:48:27.000Z</time>
      </trkpt>
      <trkpt lat="45.60067" lon="6.63957">
        <ele>1633.1</ele>
        <time>2013-12-08T08:48:57.000Z</time>
      </trkpt>
      <trkpt lat="45.60075" lon="6.63911">
        <ele>1633.5</ele>
        <time>2013-12-08T08:49:28.000Z</time>
      </trkpt>
      <trkpt lat="45.60085" lon="6.63877">
        <ele>1636.6</ele>
        <time>2013-12-08T08:49:59.000Z</time>
      </trkpt>
      <trkpt lat="45.60094" lon="6.6387">
        <ele>1637</ele>
        <time>2013-12-08T08:50:30.000Z</time>
      </trkpt>
      <trkpt lat="45.60096" lon="6.6387">
        <ele>1639.9</ele>
        <time>2013-12-08T08:51:01.000Z</time>
      </trkpt>
      <trkpt lat="45.60096" lon="6.6387">
        <ele>1639.9</ele>
        <time>2013-12-08T08:51:32.000Z</time>
      </trkpt>
      <trkpt lat="45.60096" lon="6.6387">
        <ele>1640</ele>
        <time>2013-12-08T08:52:03.000Z</time>
      </trkpt>
      <trkpt lat="45.60096" lon="6.63868">
        <ele>1640.1</ele>
        <time>2013-12-08T08:52:34.000Z</time>
      </trkpt>
      <trkpt lat="45.60101" lon="6.63862">
        <ele>1641.5</ele>
        <time>2013-12-08T08:53:05.000Z</time>
      </trkpt>
      <trkpt lat="45.60118" lon="6.63842">
        <ele>1642.4</ele>
        <time>2013-12-08T08:53:36.000Z</time>
      </trkpt>
      <trkpt lat="45.60134" lon="6.6381">
        <ele>1646.8</ele>
        <time>2013-12-08T08:54:07.000Z</time>
      </trkpt>
      <trkpt lat="45.60151" lon="6.63781">
        <ele>1655</ele>
        <time>2013-12-08T08:54:38.000Z</time>
      </trkpt>
      <trkpt lat="45.60163" lon="6.6375">
        <ele>1659.1</ele>
        <time>2013-12-08T08:55:09.000Z</time>
      </trkpt>
      <trkpt lat="45.6017" lon="6.63713">
        <ele>1660.5</ele>
        <time>2013-12-08T08:55:40.000Z</time>
      </trkpt>
      <trkpt lat="45.60192" lon="6.63716">
        <ele>1660.7</ele>
        <time>2013-12-08T08:56:11.000Z</time>
      </trkpt>
      <trkpt lat="45.60209" lon="6.63734">
        <ele>1660.8</ele>
        <time>2013-12-08T08:56:41.000Z</time>
      </trkpt>
      <trkpt lat="45.60225" lon="6.63708">
        <ele>1669</ele>
        <time>2013-12-08T08:57:12.000Z</time>
      </trkpt>
      <trkpt lat="45.60233" lon="6.637">
        <ele>1670.6</ele>
        <time>2013-12-08T08:57:42.000Z</time>
      </trkpt>
      <trkpt lat="45.60235" lon="6.63695">
        <ele>1671.8</ele>
        <time>2013-12-08T08:58:12.000Z</time>
      </trkpt>
      <trkpt lat="45.60237" lon="6.63694">
        <ele>1671.8</ele>
        <time>2013-12-08T08:58:43.000Z</time>
      </trkpt>
      <trkpt lat="45.60237" lon="6.63694">
        <ele>1671.8</ele>
        <time>2013-12-08T08:59:14.000Z</time>
      </trkpt>
      <trkpt lat="45.60237" lon="6.63694">
        <ele>1671.8</ele>
        <time>2013-12-08T08:59:44.000Z</time>
      </trkpt>
      <trkpt lat="45.60237" lon="6.63694">
        <ele>1671.9</ele>
        <time>2013-12-08T09:00:15.000Z</time>
      </trkpt>
      <trkpt lat="45.6025" lon="6.63677">
        <ele>1673.3</ele>
        <time>2013-12-08T09:00:45.000Z</time>
      </trkpt>
      <trkpt lat="45.60271" lon="6.63655">
        <ele>1679.8</ele>
        <time>2013-12-08T09:01:16.000Z</time>
      </trkpt>
      <trkpt lat="45.60286" lon="6.63618">
        <ele>1682.4</ele>
        <time>2013-12-08T09:01:47.000Z</time>
      </trkpt>
      <trkpt lat="45.60275" lon="6.63584">
        <ele>1684.1</ele>
        <time>2013-12-08T09:02:18.000Z</time>
      </trkpt>
      <trkpt lat="45.60275" lon="6.6353">
        <ele>1684.8</ele>
        <time>2013-12-08T09:02:48.000Z</time>
      </trkpt>
      <trkpt lat="45.60283" lon="6.63489">
        <ele>1685.5</ele>
        <time>2013-12-08T09:03:19.000Z</time>
      </trkpt>
      <trkpt lat="45.60288" lon="6.63452">
        <ele>1692.6</ele>
        <time>2013-12-08T09:03:50.000Z</time>
      </trkpt>
      <trkpt lat="45.60299" lon="6.63414">
        <ele>1692.6</ele>
        <time>2013-12-08T09:04:21.000Z</time>
      </trkpt>
      <trkpt lat="45.60318" lon="6.63383">
        <ele>1692.6</ele>
        <time>2013-12-08T09:04:52.000Z</time>
      </trkpt>
      <trkpt lat="45.60331" lon="6.63341">
        <ele>1693.1</ele>
        <time>2013-12-08T09:05:23.000Z</time>
      </trkpt>
      <trkpt lat="45.60317" lon="6.63313">
        <ele>1693.1</ele>
        <time>2013-12-08T09:05:54.000Z</time>
      </trkpt>
      <trkpt lat="45.60304" lon="6.63279">
        <ele>1700.6</ele>
        <time>2013-12-08T09:06:25.000Z</time>
      </trkpt>
      <trkpt lat="45.60312" lon="6.63236">
        <ele>1700.6</ele>
        <time>2013-12-08T09:06:55.000Z</time>
      </trkpt>
      <trkpt lat="45.60316" lon="6.6323">
        <ele>1702.1</ele>
        <time>2013-12-08T09:07:25.000Z</time>
      </trkpt>
      <trkpt lat="45.60332" lon="6.63197">
        <ele>1700.6</ele>
        <time>2013-12-08T09:07:56.000Z</time>
      </trkpt>
      <trkpt lat="45.60356" lon="6.63171">
        <ele>1700.3</ele>
        <time>2013-12-08T09:08:26.000Z</time>
      </trkpt>
      <trkpt lat="45.60378" lon="6.63143">
        <ele>1698.1</ele>
        <time>2013-12-08T09:08:57.000Z</time>
      </trkpt>
      <trkpt lat="45.60394" lon="6.63121">
        <ele>1692.4</ele>
        <time>2013-12-08T09:09:28.000Z</time>
      </trkpt>
      <trkpt lat="45.6041" lon="6.63095">
        <ele>1692.3</ele>
        <time>2013-12-08T09:09:58.000Z</time>
      </trkpt>
      <trkpt lat="45.60423" lon="6.63063">
        <ele>1692.3</ele>
        <time>2013-12-08T09:10:28.000Z</time>
      </trkpt>
      <trkpt lat="45.60434" lon="6.63029">
        <ele>1692.4</ele>
        <time>2013-12-08T09:10:59.000Z</time>
      </trkpt>
      <trkpt lat="45.60453" lon="6.63001">
        <ele>1692.7</ele>
        <time>2013-12-08T09:11:29.000Z</time>
      </trkpt>
      <trkpt lat="45.60476" lon="6.62976">
        <ele>1698.2</ele>
        <time>2013-12-08T09:12:00.000Z</time>
      </trkpt>
      <trkpt lat="45.60502" lon="6.62955">
        <ele>1706.2</ele>
        <time>2013-12-08T09:12:30.000Z</time>
      </trkpt>
      <trkpt lat="45.60526" lon="6.62931">
        <ele>1717.4</ele>
        <time>2013-12-08T09:13:01.000Z</time>
      </trkpt>
      <trkpt lat="45.60538" lon="6.62902">
        <ele>1720.4</ele>
        <time>2013-12-08T09:13:32.000Z</time>
      </trkpt>
      <trkpt lat="45.60559" lon="6.62876">
        <ele>1730.1</ele>
        <time>2013-12-08T09:14:02.000Z</time>
      </trkpt>
      <trkpt lat="45.60575" lon="6.6285">
        <ele>1732.8</ele>
        <time>2013-12-08T09:14:33.000Z</time>
      </trkpt>
      <trkpt lat="45.60598" lon="6.6285">
        <ele>1732.8</ele>
        <time>2013-12-08T09:15:04.000Z</time>
      </trkpt>
      <trkpt lat="45.60611" lon="6.62834">
        <ele>1732.8</ele>
        <time>2013-12-08T09:15:35.000Z</time>
      </trkpt>
      <trkpt lat="45.60611" lon="6.62803">
        <ele>1732.4</ele>
        <time>2013-12-08T09:16:06.000Z</time>
      </trkpt>
      <trkpt lat="45.6062" lon="6.62783">
        <ele>1730.2</ele>
        <time>2013-12-08T09:16:36.000Z</time>
      </trkpt>
      <trkpt lat="45.60628" lon="6.62758">
        <ele>1730.2</ele>
        <time>2013-12-08T09:17:07.000Z</time>
      </trkpt>
      <trkpt lat="45.60631" lon="6.62721">
        <ele>1731.3</ele>
        <time>2013-12-08T09:17:38.000Z</time>
      </trkpt>
      <trkpt lat="45.6065" lon="6.627">
        <ele>1731.3</ele>
        <time>2013-12-08T09:18:09.000Z</time>
      </trkpt>
      <trkpt lat="45.60663" lon="6.62676">
        <ele>1732.6</ele>
        <time>2013-12-08T09:18:40.000Z</time>
      </trkpt>
      <trkpt lat="45.60679" lon="6.62648">
        <ele>1736.9</ele>
        <time>2013-12-08T09:19:11.000Z</time>
      </trkpt>
      <trkpt lat="45.60696" lon="6.6264">
        <ele>1746.9</ele>
        <time>2013-12-08T09:19:41.000Z</time>
      </trkpt>
      <trkpt lat="45.60714" lon="6.62632">
        <ele>1749.6</ele>
        <time>2013-12-08T09:20:12.000Z</time>
      </trkpt>
      <trkpt lat="45.60732" lon="6.62613">
        <ele>1755.6</ele>
        <time>2013-12-08T09:20:43.000Z</time>
      </trkpt>
      <trkpt lat="45.60752" lon="6.62589">
        <ele>1761.5</ele>
        <time>2013-12-08T09:21:13.000Z</time>
      </trkpt>
      <trkpt lat="45.60762" lon="6.62584">
        <ele>1764.9</ele>
        <time>2013-12-08T09:21:44.000Z</time>
      </trkpt>
      <trkpt lat="45.60763" lon="6.62584">
        <ele>1766.1</ele>
        <time>2013-12-08T09:22:14.000Z</time>
      </trkpt>
      <trkpt lat="45.60763" lon="6.62584">
        <ele>1766.2</ele>
        <time>2013-12-08T09:22:44.000Z</time>
      </trkpt>
      <trkpt lat="45.60765" lon="6.62584">
        <ele>1768.9</ele>
        <time>2013-12-08T09:23:15.000Z</time>
      </trkpt>
      <trkpt lat="45.60765" lon="6.62584">
        <ele>1768.9</ele>
        <time>2013-12-08T09:23:46.000Z</time>
      </trkpt>
      <trkpt lat="45.6077" lon="6.62582">
        <ele>1780.7</ele>
        <time>2013-12-08T09:24:17.000Z</time>
      </trkpt>
      <trkpt lat="45.60781" lon="6.62559">
        <ele>1784.3</ele>
        <time>2013-12-08T09:24:48.000Z</time>
      </trkpt>
      <trkpt lat="45.60785" lon="6.62557">
        <ele>1786.2</ele>
        <time>2013-12-08T09:25:19.000Z</time>
      </trkpt>
      <trkpt lat="45.60791" lon="6.62553">
        <ele>1786.7</ele>
        <time>2013-12-08T09:25:50.000Z</time>
      </trkpt>
      <trkpt lat="45.60809" lon="6.62524">
        <ele>1789.7</ele>
        <time>2013-12-08T09:26:21.000Z</time>
      </trkpt>
      <trkpt lat="45.60825" lon="6.625">
        <ele>1795.7</ele>
        <time>2013-12-08T09:26:52.000Z</time>
      </trkpt>
      <trkpt lat="45.60845" lon="6.6247">
        <ele>1804.3</ele>
        <time>2013-12-08T09:27:23.000Z</time>
      </trkpt>
      <trkpt lat="45.60861" lon="6.6244">
        <ele>1805.4</ele>
        <time>2013-12-08T09:27:54.000Z</time>
      </trkpt>
      <trkpt lat="45.60885" lon="6.62426">
        <ele>1812.1</ele>
        <time>2013-12-08T09:28:25.000Z</time>
      </trkpt>
      <trkpt lat="45.60907" lon="6.62397">
        <ele>1814.4</ele>
        <time>2013-12-08T09:28:56.000Z</time>
      </trkpt>
      <trkpt lat="45.6092" lon="6.6237">
        <ele>1816.8</ele>
        <time>2013-12-08T09:29:27.000Z</time>
      </trkpt>
      <trkpt lat="45.60934" lon="6.62349">
        <ele>1818.5</ele>
        <time>2013-12-08T09:29:58.000Z</time>
      </trkpt>
      <trkpt lat="45.60954" lon="6.6233">
        <ele>1824.6</ele>
        <time>2013-12-08T09:30:28.000Z</time>
      </trkpt>
      <trkpt lat="45.60966" lon="6.62312">
        <ele>1827.8</ele>
        <time>2013-12-08T09:30:59.000Z</time>
      </trkpt>
      <trkpt lat="45.60988" lon="6.623">
        <ele>1837.8</ele>
        <time>2013-12-08T09:31:30.000Z</time>
      </trkpt>
      <trkpt lat="45.61002" lon="6.62286">
        <ele>1840.9</ele>
        <time>2013-12-08T09:32:00.000Z</time>
      </trkpt>
      <trkpt lat="45.61013" lon="6.62275">
        <ele>1841.4</ele>
        <time>2013-12-08T09:32:30.000Z</time>
      </trkpt>
      <trkpt lat="45.61025" lon="6.62256">
        <ele>1842.2</ele>
        <time>2013-12-08T09:33:01.000Z</time>
      </trkpt>
      <trkpt lat="45.61034" lon="6.62249">
        <ele>1842.9</ele>
        <time>2013-12-08T09:33:32.000Z</time>
      </trkpt>
      <trkpt lat="45.61055" lon="6.62218">
        <ele>1847.2</ele>
        <time>2013-12-08T09:34:03.000Z</time>
      </trkpt>
      <trkpt lat="45.61078" lon="6.62195">
        <ele>1850</ele>
        <time>2013-12-08T09:34:34.000Z</time>
      </trkpt>
      <trkpt lat="45.61094" lon="6.6217">
        <ele>1862.7</ele>
        <time>2013-12-08T09:35:05.000Z</time>
      </trkpt>
      <trkpt lat="45.61103" lon="6.62142">
        <ele>1867.3</ele>
        <time>2013-12-08T09:35:36.000Z</time>
      </trkpt>
      <trkpt lat="45.61114" lon="6.62112">
        <ele>1868.8</ele>
        <time>2013-12-08T09:36:07.000Z</time>
      </trkpt>
      <trkpt lat="45.61125" lon="6.62085">
        <ele>1875.8</ele>
        <time>2013-12-08T09:36:38.000Z</time>
      </trkpt>
      <trkpt lat="45.61137" lon="6.62057">
        <ele>1883.6</ele>
        <time>2013-12-08T09:37:09.000Z</time>
      </trkpt>
      <trkpt lat="45.61149" lon="6.62047">
        <ele>1888.2</ele>
        <time>2013-12-08T09:37:40.000Z</time>
      </trkpt>
      <trkpt lat="45.6117" lon="6.62037">
        <ele>1889.6</ele>
        <time>2013-12-08T09:38:11.000Z</time>
      </trkpt>
      <trkpt lat="45.61186" lon="6.62018">
        <ele>1889.6</ele>
        <time>2013-12-08T09:38:42.000Z</time>
      </trkpt>
      <trkpt lat="45.61192" lon="6.62003">
        <ele>1891.3</ele>
        <time>2013-12-08T09:39:12.000Z</time>
      </trkpt>
      <trkpt lat="45.61192" lon="6.62002">
        <ele>1891.3</ele>
        <time>2013-12-08T09:39:43.000Z</time>
      </trkpt>
      <trkpt lat="45.61211" lon="6.61984">
        <ele>1891.5</ele>
        <time>2013-12-08T09:40:13.000Z</time>
      </trkpt>
      <trkpt lat="45.6123" lon="6.61967">
        <ele>1896.3</ele>
        <time>2013-12-08T09:40:44.000Z</time>
      </trkpt>
      <trkpt lat="45.61242" lon="6.61945">
        <ele>1899.7</ele>
        <time>2013-12-08T09:41:14.000Z</time>
      </trkpt>
      <trkpt lat="45.61261" lon="6.61927">
        <ele>1903.4</ele>
        <time>2013-12-08T09:41:45.000Z</time>
      </trkpt>
      <trkpt lat="45.61285" lon="6.61914">
        <ele>1907.8</ele>
        <time>2013-12-08T09:42:16.000Z</time>
      </trkpt>
      <trkpt lat="45.61306" lon="6.61903">
        <ele>1910.1</ele>
        <time>2013-12-08T09:42:47.000Z</time>
      </trkpt>
      <trkpt lat="45.61323" lon="6.61898">
        <ele>1910.3</ele>
        <time>2013-12-08T09:43:18.000Z</time>
      </trkpt>
      <trkpt lat="45.61349" lon="6.61899">
        <ele>1912</ele>
        <time>2013-12-08T09:43:49.000Z</time>
      </trkpt>
      <trkpt lat="45.61355" lon="6.61898">
        <ele>1913.7</ele>
        <time>2013-12-08T09:44:20.000Z</time>
      </trkpt>
      <trkpt lat="45.6136" lon="6.61899">
        <ele>1913.8</ele>
        <time>2013-12-08T09:44:51.000Z</time>
      </trkpt>
      <trkpt lat="45.61373" lon="6.61899">
        <ele>1921.8</ele>
        <time>2013-12-08T09:45:22.000Z</time>
      </trkpt>
      <trkpt lat="45.61387" lon="6.61889">
        <ele>1933.3</ele>
        <time>2013-12-08T09:45:53.000Z</time>
      </trkpt>
      <trkpt lat="45.61405" lon="6.61875">
        <ele>1944.2</ele>
        <time>2013-12-08T09:46:24.000Z</time>
      </trkpt>
      <trkpt lat="45.61426" lon="6.61875">
        <ele>1947.4</ele>
        <time>2013-12-08T09:46:54.000Z</time>
      </trkpt>
      <trkpt lat="45.61433" lon="6.61864">
        <ele>1950</ele>
        <time>2013-12-08T09:47:25.000Z</time>
      </trkpt>
      <trkpt lat="45.61421" lon="6.6185">
        <ele>1954.1</ele>
        <time>2013-12-08T09:47:55.000Z</time>
      </trkpt>
      <trkpt lat="45.61411" lon="6.61837">
        <ele>1959.5</ele>
        <time>2013-12-08T09:48:25.000Z</time>
      </trkpt>
      <trkpt lat="45.61433" lon="6.61838">
        <ele>1967.6</ele>
        <time>2013-12-08T09:48:55.000Z</time>
      </trkpt>
      <trkpt lat="45.61451" lon="6.61835">
        <ele>1972.1</ele>
        <time>2013-12-08T09:49:26.000Z</time>
      </trkpt>
      <trkpt lat="45.61465" lon="6.61842">
        <ele>1972.5</ele>
        <time>2013-12-08T09:49:56.000Z</time>
      </trkpt>
      <trkpt lat="45.61474" lon="6.61873">
        <ele>1978.4</ele>
        <time>2013-12-08T09:50:26.000Z</time>
      </trkpt>
      <trkpt lat="45.61487" lon="6.61887">
        <ele>1979.8</ele>
        <time>2013-12-08T09:50:57.000Z</time>
      </trkpt>
      <trkpt lat="45.61493" lon="6.61891">
        <ele>1981.2</ele>
        <time>2013-12-08T09:51:27.000Z</time>
      </trkpt>
      <trkpt lat="45.61492" lon="6.61891">
        <ele>1981.7</ele>
        <time>2013-12-08T09:51:58.000Z</time>
      </trkpt>
      <trkpt lat="45.61492" lon="6.61891">
        <ele>1981.7</ele>
        <time>2013-12-08T09:52:28.000Z</time>
      </trkpt>
      <trkpt lat="45.61492" lon="6.6189">
        <ele>1981.7</ele>
        <time>2013-12-08T09:52:59.000Z</time>
      </trkpt>
      <trkpt lat="45.61492" lon="6.6189">
        <ele>1981.7</ele>
        <time>2013-12-08T09:53:30.000Z</time>
      </trkpt>
      <trkpt lat="45.61492" lon="6.61891">
        <ele>1980.6</ele>
        <time>2013-12-08T09:54:01.000Z</time>
      </trkpt>
      <trkpt lat="45.61492" lon="6.61892">
        <ele>1980</ele>
        <time>2013-12-08T09:54:32.000Z</time>
      </trkpt>
      <trkpt lat="45.61492" lon="6.61892">
        <ele>1979.9</ele>
        <time>2013-12-08T09:55:03.000Z</time>
      </trkpt>
      <trkpt lat="45.61492" lon="6.61892">
        <ele>1979.9</ele>
        <time>2013-12-08T09:55:34.000Z</time>
      </trkpt>
      <trkpt lat="45.61492" lon="6.61892">
        <ele>1979.8</ele>
        <time>2013-12-08T09:56:05.000Z</time>
      </trkpt>
      <trkpt lat="45.61492" lon="6.61892">
        <ele>1979.8</ele>
        <time>2013-12-08T09:56:36.000Z</time>
      </trkpt>
      <trkpt lat="45.61492" lon="6.61892">
        <ele>1979.8</ele>
        <time>2013-12-08T09:57:06.000Z</time>
      </trkpt>
      <trkpt lat="45.61492" lon="6.61892">
        <ele>1979.9</ele>
        <time>2013-12-08T09:57:37.000Z</time>
      </trkpt>
      <trkpt lat="45.61499" lon="6.61892">
        <ele>1983.7</ele>
        <time>2013-12-08T09:58:08.000Z</time>
      </trkpt>
      <trkpt lat="45.61502" lon="6.61893">
        <ele>1984</ele>
        <time>2013-12-08T09:58:39.000Z</time>
      </trkpt>
      <trkpt lat="45.61501" lon="6.61893">
        <ele>1984.2</ele>
        <time>2013-12-08T09:59:09.000Z</time>
      </trkpt>
      <trkpt lat="45.615" lon="6.61892">
        <ele>1984</ele>
        <time>2013-12-08T09:59:40.000Z</time>
      </trkpt>
      <trkpt lat="45.615" lon="6.61892">
        <ele>1984</ele>
        <time>2013-12-08T10:00:10.000Z</time>
      </trkpt>
      <trkpt lat="45.61501" lon="6.61893">
        <ele>1985.7</ele>
        <time>2013-12-08T10:00:40.000Z</time>
      </trkpt>
      <trkpt lat="45.61505" lon="6.61895">
        <ele>1983.9</ele>
        <time>2013-12-08T10:01:11.000Z</time>
      </trkpt>
      <trkpt lat="45.61507" lon="6.61895">
        <ele>1983.9</ele>
        <time>2013-12-08T10:01:41.000Z</time>
      </trkpt>
      <trkpt lat="45.61526" lon="6.6188">
        <ele>1986.5</ele>
        <time>2013-12-08T10:02:12.000Z</time>
      </trkpt>
      <trkpt lat="45.61548" lon="6.61856">
        <ele>1987.3</ele>
        <time>2013-12-08T10:02:42.000Z</time>
      </trkpt>
      <trkpt lat="45.61568" lon="6.6183">
        <ele>1987.8</ele>
        <time>2013-12-08T10:03:13.000Z</time>
      </trkpt>
      <trkpt lat="45.6159" lon="6.61805">
        <ele>1991.6</ele>
        <time>2013-12-08T10:03:44.000Z</time>
      </trkpt>
      <trkpt lat="45.6161" lon="6.61784">
        <ele>1992.9</ele>
        <time>2013-12-08T10:04:15.000Z</time>
      </trkpt>
      <trkpt lat="45.61618" lon="6.61755">
        <ele>1992.9</ele>
        <time>2013-12-08T10:04:46.000Z</time>
      </trkpt>
      <trkpt lat="45.61618" lon="6.61724">
        <ele>1993.6</ele>
        <time>2013-12-08T10:05:17.000Z</time>
      </trkpt>
      <trkpt lat="45.61616" lon="6.61693">
        <ele>1993.6</ele>
        <time>2013-12-08T10:05:48.000Z</time>
      </trkpt>
      <trkpt lat="45.61621" lon="6.61654">
        <ele>2002.4</ele>
        <time>2013-12-08T10:06:19.000Z</time>
      </trkpt>
      <trkpt lat="45.61627" lon="6.61623">
        <ele>2006</ele>
        <time>2013-12-08T10:06:50.000Z</time>
      </trkpt>
      <trkpt lat="45.61634" lon="6.61595">
        <ele>2006.6</ele>
        <time>2013-12-08T10:07:21.000Z</time>
      </trkpt>
      <trkpt lat="45.6164" lon="6.6157">
        <ele>2008</ele>
        <time>2013-12-08T10:07:52.000Z</time>
      </trkpt>
      <trkpt lat="45.61649" lon="6.61542">
        <ele>2010.3</ele>
        <time>2013-12-08T10:08:22.000Z</time>
      </trkpt>
      <trkpt lat="45.61659" lon="6.61514">
        <ele>2018.6</ele>
        <time>2013-12-08T10:08:52.000Z</time>
      </trkpt>
      <trkpt lat="45.61645" lon="6.61503">
        <ele>2023.5</ele>
        <time>2013-12-08T10:09:22.000Z</time>
      </trkpt>
      <trkpt lat="45.61637" lon="6.6148">
        <ele>2029.9</ele>
        <time>2013-12-08T10:09:53.000Z</time>
      </trkpt>
      <trkpt lat="45.61642" lon="6.61459">
        <ele>2031</ele>
        <time>2013-12-08T10:10:23.000Z</time>
      </trkpt>
      <trkpt lat="45.61644" lon="6.61457">
        <ele>2031.9</ele>
        <time>2013-12-08T10:10:54.000Z</time>
      </trkpt>
      <trkpt lat="45.6163" lon="6.61444">
        <ele>2037.4</ele>
        <time>2013-12-08T10:11:24.000Z</time>
      </trkpt>
      <trkpt lat="45.61612" lon="6.61434">
        <ele>2039.5</ele>
        <time>2013-12-08T10:11:56.000Z</time>
      </trkpt>
      <trkpt lat="45.61599" lon="6.61418">
        <ele>2044.6</ele>
        <time>2013-12-08T10:12:27.000Z</time>
      </trkpt>
      <trkpt lat="45.61597" lon="6.61391">
        <ele>2048</ele>
        <time>2013-12-08T10:12:58.000Z</time>
      </trkpt>
      <trkpt lat="45.61597" lon="6.61371">
        <ele>2053.4</ele>
        <time>2013-12-08T10:13:30.000Z</time>
      </trkpt>
      <trkpt lat="45.61596" lon="6.61372">
        <ele>2055</ele>
        <time>2013-12-08T10:14:01.000Z</time>
      </trkpt>
      <trkpt lat="45.61589" lon="6.61372">
        <ele>2056.1</ele>
        <time>2013-12-08T10:14:31.000Z</time>
      </trkpt>
      <trkpt lat="45.61573" lon="6.61368">
        <ele>2063.4</ele>
        <time>2013-12-08T10:15:02.000Z</time>
      </trkpt>
      <trkpt lat="45.61575" lon="6.61343">
        <ele>2065.2</ele>
        <time>2013-12-08T10:15:33.000Z</time>
      </trkpt>
      <trkpt lat="45.61567" lon="6.61327">
        <ele>2069.6</ele>
        <time>2013-12-08T10:16:03.000Z</time>
      </trkpt>
      <trkpt lat="45.61559" lon="6.61313">
        <ele>2073.1</ele>
        <time>2013-12-08T10:16:33.000Z</time>
      </trkpt>
      <trkpt lat="45.61555" lon="6.61295">
        <ele>2073.3</ele>
        <time>2013-12-08T10:17:03.000Z</time>
      </trkpt>
      <trkpt lat="45.61542" lon="6.61278">
        <ele>2079.9</ele>
        <time>2013-12-08T10:17:34.000Z</time>
      </trkpt>
      <trkpt lat="45.61523" lon="6.61264">
        <ele>2087.4</ele>
        <time>2013-12-08T10:18:04.000Z</time>
      </trkpt>
      <trkpt lat="45.61513" lon="6.61248">
        <ele>2090</ele>
        <time>2013-12-08T10:18:33.000Z</time>
      </trkpt>
      <trkpt lat="45.61515" lon="6.6122">
        <ele>2094.1</ele>
        <time>2013-12-08T10:19:05.000Z</time>
      </trkpt>
      <trkpt lat="45.61515" lon="6.61202">
        <ele>2097.5</ele>
        <time>2013-12-08T10:19:35.000Z</time>
      </trkpt>
      <trkpt lat="45.61507" lon="6.6119">
        <ele>2100.1</ele>
        <time>2013-12-08T10:20:06.000Z</time>
      </trkpt>
      <trkpt lat="45.61502" lon="6.61169">
        <ele>2102.8</ele>
        <time>2013-12-08T10:20:36.000Z</time>
      </trkpt>
      <trkpt lat="45.61494" lon="6.61152">
        <ele>2109.1</ele>
        <time>2013-12-08T10:21:08.000Z</time>
      </trkpt>
      <trkpt lat="45.61489" lon="6.61141">
        <ele>2109.3</ele>
        <time>2013-12-08T10:21:39.000Z</time>
      </trkpt>
      <trkpt lat="45.61488" lon="6.6114">
        <ele>2110</ele>
        <time>2013-12-08T10:22:10.000Z</time>
      </trkpt>
      <trkpt lat="45.61478" lon="6.61116">
        <ele>2112.1</ele>
        <time>2013-12-08T10:22:41.000Z</time>
      </trkpt>
      <trkpt lat="45.61467" lon="6.61095">
        <ele>2113.7</ele>
        <time>2013-12-08T10:23:11.000Z</time>
      </trkpt>
      <trkpt lat="45.61457" lon="6.61076">
        <ele>2115</ele>
        <time>2013-12-08T10:23:42.000Z</time>
      </trkpt>
      <trkpt lat="45.61457" lon="6.61076">
        <ele>2115</ele>
        <time>2013-12-08T10:24:12.000Z</time>
      </trkpt>
      <trkpt lat="45.61457" lon="6.61076">
        <ele>2115</ele>
        <time>2013-12-08T10:24:43.000Z</time>
      </trkpt>
      <trkpt lat="45.61457" lon="6.61073">
        <ele>2114.6</ele>
        <time>2013-12-08T10:25:13.000Z</time>
      </trkpt>
      <trkpt lat="45.61457" lon="6.61072">
        <ele>2114.5</ele>
        <time>2013-12-08T10:25:43.000Z</time>
      </trkpt>
      <trkpt lat="45.61457" lon="6.61073">
        <ele>2114.5</ele>
        <time>2013-12-08T10:26:14.000Z</time>
      </trkpt>
      <trkpt lat="45.61457" lon="6.61073">
        <ele>2114.6</ele>
        <time>2013-12-08T10:26:45.000Z</time>
      </trkpt>
      <trkpt lat="45.61457" lon="6.61073">
        <ele>2114.6</ele>
        <time>2013-12-08T10:27:15.000Z</time>
      </trkpt>
      <trkpt lat="45.61457" lon="6.61073">
        <ele>2114.6</ele>
        <time>2013-12-08T10:27:46.000Z</time>
      </trkpt>
      <trkpt lat="45.61457" lon="6.61073">
        <ele>2114.7</ele>
        <time>2013-12-08T10:28:15.000Z</time>
      </trkpt>
      <trkpt lat="45.61457" lon="6.61073">
        <ele>2114.7</ele>
        <time>2013-12-08T10:28:47.000Z</time>
      </trkpt>
      <trkpt lat="45.61457" lon="6.61073">
        <ele>2114.8</ele>
        <time>2013-12-08T10:29:18.000Z</time>
      </trkpt>
      <trkpt lat="45.61457" lon="6.61073">
        <ele>2114.9</ele>
        <time>2013-12-08T10:29:49.000Z</time>
      </trkpt>
      <trkpt lat="45.61456" lon="6.61072">
        <ele>2115.4</ele>
        <time>2013-12-08T10:30:20.000Z</time>
      </trkpt>
      <trkpt lat="45.61456" lon="6.61072">
        <ele>2115.4</ele>
        <time>2013-12-08T10:30:50.000Z</time>
      </trkpt>
      <trkpt lat="45.61455" lon="6.61072">
        <ele>2116.6</ele>
        <time>2013-12-08T10:31:21.000Z</time>
      </trkpt>
      <trkpt lat="45.61456" lon="6.61071">
        <ele>2118.1</ele>
        <time>2013-12-08T10:31:51.000Z</time>
      </trkpt>
      <trkpt lat="45.61455" lon="6.61069">
        <ele>2118.3</ele>
        <time>2013-12-08T10:32:22.000Z</time>
      </trkpt>
      <trkpt lat="45.61443" lon="6.61057">
        <ele>2121.2</ele>
        <time>2013-12-08T10:32:53.000Z</time>
      </trkpt>
      <trkpt lat="45.61423" lon="6.61044">
        <ele>2121.8</ele>
        <time>2013-12-08T10:33:23.000Z</time>
      </trkpt>
      <trkpt lat="45.61403" lon="6.61036">
        <ele>2125.9</ele>
        <time>2013-12-08T10:33:53.000Z</time>
      </trkpt>
      <trkpt lat="45.61385" lon="6.61037">
        <ele>2128.8</ele>
        <time>2013-12-08T10:34:24.000Z</time>
      </trkpt>
      <trkpt lat="45.61369" lon="6.61044">
        <ele>2134.3</ele>
        <time>2013-12-08T10:34:55.000Z</time>
      </trkpt>
      <trkpt lat="45.61355" lon="6.61034">
        <ele>2141.8</ele>
        <time>2013-12-08T10:35:26.000Z</time>
      </trkpt>
      <trkpt lat="45.61335" lon="6.61026">
        <ele>2142.9</ele>
        <time>2013-12-08T10:35:57.000Z</time>
      </trkpt>
      <trkpt lat="45.61317" lon="6.61017">
        <ele>2151.5</ele>
        <time>2013-12-08T10:36:28.000Z</time>
      </trkpt>
      <trkpt lat="45.613" lon="6.61011">
        <ele>2155.3</ele>
        <time>2013-12-08T10:36:59.000Z</time>
      </trkpt>
      <trkpt lat="45.61295" lon="6.61009">
        <ele>2157.8</ele>
        <time>2013-12-08T10:37:31.000Z</time>
      </trkpt>
      <trkpt lat="45.61282" lon="6.6099">
        <ele>2164.1</ele>
        <time>2013-12-08T10:38:01.000Z</time>
      </trkpt>
      <trkpt lat="45.61266" lon="6.60971">
        <ele>2171.8</ele>
        <time>2013-12-08T10:38:33.000Z</time>
      </trkpt>
      <trkpt lat="45.61259" lon="6.60948">
        <ele>2177.6</ele>
        <time>2013-12-08T10:39:04.000Z</time>
      </trkpt>
      <trkpt lat="45.61246" lon="6.60938">
        <ele>2179.8</ele>
        <time>2013-12-08T10:39:35.000Z</time>
      </trkpt>
      <trkpt lat="45.61233" lon="6.60919">
        <ele>2185.6</ele>
        <time>2013-12-08T10:40:06.000Z</time>
      </trkpt>
      <trkpt lat="45.61223" lon="6.60904">
        <ele>2188.5</ele>
        <time>2013-12-08T10:40:36.000Z</time>
      </trkpt>
      <trkpt lat="45.6121" lon="6.60897">
        <ele>2192.7</ele>
        <time>2013-12-08T10:41:07.000Z</time>
      </trkpt>
      <trkpt lat="45.61207" lon="6.6091">
        <ele>2193.6</ele>
        <time>2013-12-08T10:41:37.000Z</time>
      </trkpt>
      <trkpt lat="45.6119" lon="6.60899">
        <ele>2198.2</ele>
        <time>2013-12-08T10:42:08.000Z</time>
      </trkpt>
      <trkpt lat="45.61172" lon="6.60898">
        <ele>2201.5</ele>
        <time>2013-12-08T10:42:38.000Z</time>
      </trkpt>
      <trkpt lat="45.61171" lon="6.60915">
        <ele>2205.3</ele>
        <time>2013-12-08T10:43:09.000Z</time>
      </trkpt>
      <trkpt lat="45.61171" lon="6.6092">
        <ele>2206.9</ele>
        <time>2013-12-08T10:43:39.000Z</time>
      </trkpt>
      <trkpt lat="45.6117" lon="6.60921">
        <ele>2207.5</ele>
        <time>2013-12-08T10:44:10.000Z</time>
      </trkpt>
      <trkpt lat="45.61169" lon="6.60921">
        <ele>2207.7</ele>
        <time>2013-12-08T10:44:40.000Z</time>
      </trkpt>
      <trkpt lat="45.6115" lon="6.60921">
        <ele>2209.4</ele>
        <time>2013-12-08T10:45:11.000Z</time>
      </trkpt>
      <trkpt lat="45.61135" lon="6.60927">
        <ele>2213.3</ele>
        <time>2013-12-08T10:45:42.000Z</time>
      </trkpt>
      <trkpt lat="45.61119" lon="6.6094">
        <ele>2216.3</ele>
        <time>2013-12-08T10:46:13.000Z</time>
      </trkpt>
      <trkpt lat="45.61105" lon="6.60955">
        <ele>2218.2</ele>
        <time>2013-12-08T10:46:43.000Z</time>
      </trkpt>
      <trkpt lat="45.61093" lon="6.60951">
        <ele>2220.7</ele>
        <time>2013-12-08T10:47:14.000Z</time>
      </trkpt>
      <trkpt lat="45.61094" lon="6.60951">
        <ele>2223.3</ele>
        <time>2013-12-08T10:47:44.000Z</time>
      </trkpt>
      <trkpt lat="45.61094" lon="6.60951">
        <ele>2223.3</ele>
        <time>2013-12-08T10:48:15.000Z</time>
      </trkpt>
      <trkpt lat="45.61094" lon="6.60952">
        <ele>2223.3</ele>
        <time>2013-12-08T10:48:46.000Z</time>
      </trkpt>
      <trkpt lat="45.61077" lon="6.60945">
        <ele>2228.5</ele>
        <time>2013-12-08T10:49:16.000Z</time>
      </trkpt>
      <trkpt lat="45.61053" lon="6.60936">
        <ele>2233.2</ele>
        <time>2013-12-08T10:49:48.000Z</time>
      </trkpt>
      <trkpt lat="45.61035" lon="6.60936">
        <ele>2233.3</ele>
        <time>2013-12-08T10:50:19.000Z</time>
      </trkpt>
      <trkpt lat="45.61025" lon="6.60955">
        <ele>2234.2</ele>
        <time>2013-12-08T10:50:50.000Z</time>
      </trkpt>
      <trkpt lat="45.61008" lon="6.6096">
        <ele>2236.6</ele>
        <time>2013-12-08T10:51:20.000Z</time>
      </trkpt>
      <trkpt lat="45.60989" lon="6.60969">
        <ele>2240.6</ele>
        <time>2013-12-08T10:51:51.000Z</time>
      </trkpt>
      <trkpt lat="45.60972" lon="6.60984">
        <ele>2241.9</ele>
        <time>2013-12-08T10:52:22.000Z</time>
      </trkpt>
      <trkpt lat="45.60955" lon="6.61005">
        <ele>2246.5</ele>
        <time>2013-12-08T10:52:53.000Z</time>
      </trkpt>
      <trkpt lat="45.60941" lon="6.61032">
        <ele>2246.9</ele>
        <time>2013-12-08T10:53:24.000Z</time>
      </trkpt>
      <trkpt lat="45.60927" lon="6.61064">
        <ele>2256.2</ele>
        <time>2013-12-08T10:53:54.000Z</time>
      </trkpt>
      <trkpt lat="45.60914" lon="6.61087">
        <ele>2262.1</ele>
        <time>2013-12-08T10:54:24.000Z</time>
      </trkpt>
      <trkpt lat="45.60916" lon="6.61111">
        <ele>2263.7</ele>
        <time>2013-12-08T10:54:54.000Z</time>
      </trkpt>
      <trkpt lat="45.60915" lon="6.61138">
        <ele>2268.5</ele>
        <time>2013-12-08T10:55:25.000Z</time>
      </trkpt>
      <trkpt lat="45.60906" lon="6.61153">
        <ele>2273.3</ele>
        <time>2013-12-08T10:55:55.000Z</time>
      </trkpt>
      <trkpt lat="45.60905" lon="6.61153">
        <ele>2276</ele>
        <time>2013-12-08T10:56:26.000Z</time>
      </trkpt>
      <trkpt lat="45.60905" lon="6.61153">
        <ele>2276.1</ele>
        <time>2013-12-08T10:56:56.000Z</time>
      </trkpt>
      <trkpt lat="45.60895" lon="6.6115">
        <ele>2280.8</ele>
        <time>2013-12-08T10:57:27.000Z</time>
      </trkpt>
      <trkpt lat="45.60879" lon="6.6115">
        <ele>2285.2</ele>
        <time>2013-12-08T10:57:57.000Z</time>
      </trkpt>
      <trkpt lat="45.60863" lon="6.61158">
        <ele>2292.7</ele>
        <time>2013-12-08T10:58:28.000Z</time>
      </trkpt>
      <trkpt lat="45.60857" lon="6.61149">
        <ele>2295.8</ele>
        <time>2013-12-08T10:58:59.000Z</time>
      </trkpt>
      <trkpt lat="45.60857" lon="6.61146">
        <ele>2298</ele>
        <time>2013-12-08T10:59:30.000Z</time>
      </trkpt>
      <trkpt lat="45.60857" lon="6.61146">
        <ele>2298</ele>
        <time>2013-12-08T11:00:01.000Z</time>
      </trkpt>
      <trkpt lat="45.60857" lon="6.61146">
        <ele>2298</ele>
        <time>2013-12-08T11:00:32.000Z</time>
      </trkpt>
      <trkpt lat="45.60856" lon="6.61145">
        <ele>2298.1</ele>
        <time>2013-12-08T11:01:02.000Z</time>
      </trkpt>
      <trkpt lat="45.60854" lon="6.61145">
        <ele>2300.9</ele>
        <time>2013-12-08T11:01:32.000Z</time>
      </trkpt>
      <trkpt lat="45.60854" lon="6.61145">
        <ele>2300.9</ele>
        <time>2013-12-08T11:02:03.000Z</time>
      </trkpt>
      <trkpt lat="45.60854" lon="6.61145">
        <ele>2300.9</ele>
        <time>2013-12-08T11:02:34.000Z</time>
      </trkpt>
      <trkpt lat="45.60854" lon="6.61145">
        <ele>2300.9</ele>
        <time>2013-12-08T11:03:05.000Z</time>
      </trkpt>
      <trkpt lat="45.60854" lon="6.61145">
        <ele>2300.9</ele>
        <time>2013-12-08T11:03:36.000Z</time>
      </trkpt>
      <trkpt lat="45.60851" lon="6.61147">
        <ele>2302.3</ele>
        <time>2013-12-08T11:04:06.000Z</time>
      </trkpt>
      <trkpt lat="45.60843" lon="6.61151">
        <ele>2303.4</ele>
        <time>2013-12-08T11:04:36.000Z</time>
      </trkpt>
      <trkpt lat="45.60843" lon="6.61152">
        <ele>2303.5</ele>
        <time>2013-12-08T11:05:07.000Z</time>
      </trkpt>
      <trkpt lat="45.60843" lon="6.61152">
        <ele>2303.5</ele>
        <time>2013-12-08T11:05:38.000Z</time>
      </trkpt>
      <trkpt lat="45.60836" lon="6.61157">
        <ele>2304.6</ele>
        <time>2013-12-08T11:06:09.000Z</time>
      </trkpt>
      <trkpt lat="45.60827" lon="6.61159">
        <ele>2307.1</ele>
        <time>2013-12-08T11:06:40.000Z</time>
      </trkpt>
      <trkpt lat="45.60816" lon="6.6116">
        <ele>2309.8</ele>
        <time>2013-12-08T11:07:11.000Z</time>
      </trkpt>
      <trkpt lat="45.60799" lon="6.61168">
        <ele>2313.3</ele>
        <time>2013-12-08T11:07:42.000Z</time>
      </trkpt>
      <trkpt lat="45.6078" lon="6.61167">
        <ele>2316.8</ele>
        <time>2013-12-08T11:08:13.000Z</time>
      </trkpt>
      <trkpt lat="45.60777" lon="6.61166">
        <ele>2318.3</ele>
        <time>2013-12-08T11:08:44.000Z</time>
      </trkpt>
      <trkpt lat="45.6076" lon="6.61165">
        <ele>2319.1</ele>
        <time>2013-12-08T11:09:14.000Z</time>
      </trkpt>
      <trkpt lat="45.60743" lon="6.61151">
        <ele>2324.6</ele>
        <time>2013-12-08T11:09:45.000Z</time>
      </trkpt>
      <trkpt lat="45.60734" lon="6.61142">
        <ele>2328</ele>
        <time>2013-12-08T11:10:16.000Z</time>
      </trkpt>
      <trkpt lat="45.60716" lon="6.61129">
        <ele>2331</ele>
        <time>2013-12-08T11:10:47.000Z</time>
      </trkpt>
      <trkpt lat="45.60701" lon="6.61112">
        <ele>2333.8</ele>
        <time>2013-12-08T11:11:17.000Z</time>
      </trkpt>
      <trkpt lat="45.60688" lon="6.61096">
        <ele>2337.9</ele>
        <time>2013-12-08T11:11:47.000Z</time>
      </trkpt>
      <trkpt lat="45.60672" lon="6.6108">
        <ele>2338.4</ele>
        <time>2013-12-08T11:12:18.000Z</time>
      </trkpt>
      <trkpt lat="45.60659" lon="6.61066">
        <ele>2338.4</ele>
        <time>2013-12-08T11:12:48.000Z</time>
      </trkpt>
      <trkpt lat="45.60658" lon="6.61065">
        <ele>2338.4</ele>
        <time>2013-12-08T11:13:18.000Z</time>
      </trkpt>
      <trkpt lat="45.60658" lon="6.61065">
        <ele>2338.4</ele>
        <time>2013-12-08T11:13:48.000Z</time>
      </trkpt>
      <trkpt lat="45.60658" lon="6.61065">
        <ele>2338.4</ele>
        <time>2013-12-08T11:14:19.000Z</time>
      </trkpt>
      <trkpt lat="45.60659" lon="6.61066">
        <ele>2338.4</ele>
        <time>2013-12-08T11:14:49.000Z</time>
      </trkpt>
      <trkpt lat="45.60659" lon="6.61066">
        <ele>2338.4</ele>
        <time>2013-12-08T11:15:20.000Z</time>
      </trkpt>
      <trkpt lat="45.60659" lon="6.61066">
        <ele>2338.4</ele>
        <time>2013-12-08T11:15:51.000Z</time>
      </trkpt>
      <trkpt lat="45.60659" lon="6.61066">
        <ele>2338.4</ele>
        <time>2013-12-08T11:16:21.000Z</time>
      </trkpt>
      <trkpt lat="45.60659" lon="6.61066">
        <ele>2338.4</ele>
        <time>2013-12-08T11:16:52.000Z</time>
      </trkpt>
      <trkpt lat="45.60659" lon="6.61066">
        <ele>2338.4</ele>
        <time>2013-12-08T11:17:23.000Z</time>
      </trkpt>
      <trkpt lat="45.60659" lon="6.61066">
        <ele>2338.4</ele>
        <time>2013-12-08T11:17:54.000Z</time>
      </trkpt>
      <trkpt lat="45.60659" lon="6.61066">
        <ele>2338.4</ele>
        <time>2013-12-08T11:18:25.000Z</time>
      </trkpt>
      <trkpt lat="45.60659" lon="6.61065">
        <ele>2338.4</ele>
        <time>2013-12-08T11:18:55.000Z</time>
      </trkpt>
      <trkpt lat="45.60659" lon="6.61065">
        <ele>2338.8</ele>
        <time>2013-12-08T11:19:26.000Z</time>
      </trkpt>
      <trkpt lat="45.6066" lon="6.61065">
        <ele>2338.8</ele>
        <time>2013-12-08T11:19:57.000Z</time>
      </trkpt>
      <trkpt lat="45.6066" lon="6.61065">
        <ele>2338.8</ele>
        <time>2013-12-08T11:20:28.000Z</time>
      </trkpt>
      <trkpt lat="45.6066" lon="6.61065">
        <ele>2338.8</ele>
        <time>2013-12-08T11:20:59.000Z</time>
      </trkpt>
      <trkpt lat="45.6066" lon="6.61065">
        <ele>2338.9</ele>
        <time>2013-12-08T11:21:30.000Z</time>
      </trkpt>
      <trkpt lat="45.60659" lon="6.61065">
        <ele>2339.3</ele>
        <time>2013-12-08T11:22:00.000Z</time>
      </trkpt>
      <trkpt lat="45.60659" lon="6.61065">
        <ele>2339.4</ele>
        <time>2013-12-08T11:22:30.000Z</time>
      </trkpt>
      <trkpt lat="45.60659" lon="6.61065">
        <ele>2339.4</ele>
        <time>2013-12-08T11:23:00.000Z</time>
      </trkpt>
      <trkpt lat="45.60659" lon="6.61065">
        <ele>2339.4</ele>
        <time>2013-12-08T11:23:30.000Z</time>
      </trkpt>
      <trkpt lat="45.60659" lon="6.61065">
        <ele>2339.4</ele>
        <time>2013-12-08T11:24:00.000Z</time>
      </trkpt>
      <trkpt lat="45.60659" lon="6.61065">
        <ele>2339.5</ele>
        <time>2013-12-08T11:24:31.000Z</time>
      </trkpt>
      <trkpt lat="45.60659" lon="6.61065">
        <ele>2339.5</ele>
        <time>2013-12-08T11:25:02.000Z</time>
      </trkpt>
      <trkpt lat="45.60659" lon="6.61065">
        <ele>2339.5</ele>
        <time>2013-12-08T11:25:32.000Z</time>
      </trkpt>
      <trkpt lat="45.60656" lon="6.61051">
        <ele>2339.5</ele>
        <time>2013-12-08T11:26:03.000Z</time>
      </trkpt>
      <trkpt lat="45.60645" lon="6.61023">
        <ele>2339.2</ele>
        <time>2013-12-08T11:26:33.000Z</time>
      </trkpt>
      <trkpt lat="45.60619" lon="6.60993">
        <ele>2338.6</ele>
        <time>2013-12-08T11:27:04.000Z</time>
      </trkpt>
      <trkpt lat="45.60602" lon="6.60976">
        <ele>2339.2</ele>
        <time>2013-12-08T11:27:35.000Z</time>
      </trkpt>
      <trkpt lat="45.60584" lon="6.60957">
        <ele>2339.2</ele>
        <time>2013-12-08T11:28:06.000Z</time>
      </trkpt>
      <trkpt lat="45.60573" lon="6.60933">
        <ele>2340.8</ele>
        <time>2013-12-08T11:28:37.000Z</time>
      </trkpt>
      <trkpt lat="45.60557" lon="6.6091">
        <ele>2343.7</ele>
        <time>2013-12-08T11:29:08.000Z</time>
      </trkpt>
      <trkpt lat="45.6054" lon="6.60894">
        <ele>2350.2</ele>
        <time>2013-12-08T11:29:39.000Z</time>
      </trkpt>
      <trkpt lat="45.60529" lon="6.60874">
        <ele>2352.1</ele>
        <time>2013-12-08T11:30:10.000Z</time>
      </trkpt>
      <trkpt lat="45.60524" lon="6.60857">
        <ele>2354</ele>
        <time>2013-12-08T11:30:41.000Z</time>
      </trkpt>
      <trkpt lat="45.60514" lon="6.60822">
        <ele>2354.2</ele>
        <time>2013-12-08T11:31:12.000Z</time>
      </trkpt>
      <trkpt lat="45.60503" lon="6.60792">
        <ele>2360</ele>
        <time>2013-12-08T11:31:42.000Z</time>
      </trkpt>
      <trkpt lat="45.60489" lon="6.60765">
        <ele>2363.5</ele>
        <time>2013-12-08T11:32:13.000Z</time>
      </trkpt>
      <trkpt lat="45.60477" lon="6.60746">
        <ele>2370</ele>
        <time>2013-12-08T11:32:44.000Z</time>
      </trkpt>
      <trkpt lat="45.60483" lon="6.60725">
        <ele>2378.6</ele>
        <time>2013-12-08T11:33:14.000Z</time>
      </trkpt>
      <trkpt lat="45.60479" lon="6.60725">
        <ele>2380.5</ele>
        <time>2013-12-08T11:33:44.000Z</time>
      </trkpt>
      <trkpt lat="45.60461" lon="6.60734">
        <ele>2381.4</ele>
        <time>2013-12-08T11:34:15.000Z</time>
      </trkpt>
      <trkpt lat="45.60445" lon="6.60732">
        <ele>2381.4</ele>
        <time>2013-12-08T11:34:46.000Z</time>
      </trkpt>
      <trkpt lat="45.60431" lon="6.60722">
        <ele>2382.7</ele>
        <time>2013-12-08T11:35:16.000Z</time>
      </trkpt>
      <trkpt lat="45.60411" lon="6.60713">
        <ele>2386.7</ele>
        <time>2013-12-08T11:35:46.000Z</time>
      </trkpt>
      <trkpt lat="45.60392" lon="6.60701">
        <ele>2387.3</ele>
        <time>2013-12-08T11:36:17.000Z</time>
      </trkpt>
      <trkpt lat="45.60373" lon="6.60691">
        <ele>2389.8</ele>
        <time>2013-12-08T11:36:48.000Z</time>
      </trkpt>
      <trkpt lat="45.60354" lon="6.60681">
        <ele>2395</ele>
        <time>2013-12-08T11:37:19.000Z</time>
      </trkpt>
      <trkpt lat="45.6036" lon="6.60668">
        <ele>2404.6</ele>
        <time>2013-12-08T11:37:50.000Z</time>
      </trkpt>
      <trkpt lat="45.60362" lon="6.60662">
        <ele>2405</ele>
        <time>2013-12-08T11:38:21.000Z</time>
      </trkpt>
      <trkpt lat="45.60367" lon="6.60644">
        <ele>2410.5</ele>
        <time>2013-12-08T11:38:51.000Z</time>
      </trkpt>
      <trkpt lat="45.60359" lon="6.60628">
        <ele>2415.3</ele>
        <time>2013-12-08T11:39:22.000Z</time>
      </trkpt>
      <trkpt lat="45.60358" lon="6.60626">
        <ele>2416.1</ele>
        <time>2013-12-08T11:39:53.000Z</time>
      </trkpt>
      <trkpt lat="45.60358" lon="6.60626">
        <ele>2416.3</ele>
        <time>2013-12-08T11:40:24.000Z</time>
      </trkpt>
      <trkpt lat="45.60358" lon="6.60626">
        <ele>2416.3</ele>
        <time>2013-12-08T11:40:55.000Z</time>
      </trkpt>
      <trkpt lat="45.60358" lon="6.60626">
        <ele>2416.3</ele>
        <time>2013-12-08T11:41:25.000Z</time>
      </trkpt>
      <trkpt lat="45.60358" lon="6.60626">
        <ele>2416.3</ele>
        <time>2013-12-08T11:41:56.000Z</time>
      </trkpt>
      <trkpt lat="45.60358" lon="6.60625">
        <ele>2415.5</ele>
        <time>2013-12-08T11:42:27.000Z</time>
      </trkpt>
      <trkpt lat="45.60357" lon="6.60625">
        <ele>2414.5</ele>
        <time>2013-12-08T11:42:57.000Z</time>
      </trkpt>
      <trkpt lat="45.60356" lon="6.60626">
        <ele>2414.5</ele>
        <time>2013-12-08T11:43:28.000Z</time>
      </trkpt>
      <trkpt lat="45.60355" lon="6.6063">
        <ele>2414.5</ele>
        <time>2013-12-08T11:43:59.000Z</time>
      </trkpt>
      <trkpt lat="45.60355" lon="6.60608">
        <ele>2417.5</ele>
        <time>2013-12-08T11:44:29.000Z</time>
      </trkpt>
      <trkpt lat="45.60364" lon="6.60592">
        <ele>2424.5</ele>
        <time>2013-12-08T11:45:00.000Z</time>
      </trkpt>
      <trkpt lat="45.60351" lon="6.60581">
        <ele>2428.7</ele>
        <time>2013-12-08T11:45:30.000Z</time>
      </trkpt>
      <trkpt lat="45.60343" lon="6.60574">
        <ele>2428.7</ele>
        <time>2013-12-08T11:46:01.000Z</time>
      </trkpt>
      <trkpt lat="45.60333" lon="6.60548">
        <ele>2432.3</ele>
        <time>2013-12-08T11:46:32.000Z</time>
      </trkpt>
      <trkpt lat="45.60313" lon="6.60528">
        <ele>2440.7</ele>
        <time>2013-12-08T11:47:03.000Z</time>
      </trkpt>
      <trkpt lat="45.603" lon="6.60508">
        <ele>2447.2</ele>
        <time>2013-12-08T11:47:34.000Z</time>
      </trkpt>
      <trkpt lat="45.60287" lon="6.60493">
        <ele>2451.8</ele>
        <time>2013-12-08T11:48:05.000Z</time>
      </trkpt>
      <trkpt lat="45.60272" lon="6.60483">
        <ele>2453.3</ele>
        <time>2013-12-08T11:48:36.000Z</time>
      </trkpt>
      <trkpt lat="45.60256" lon="6.60471">
        <ele>2456.6</ele>
        <time>2013-12-08T11:49:07.000Z</time>
      </trkpt>
      <trkpt lat="45.60255" lon="6.60468">
        <ele>2460</ele>
        <time>2013-12-08T11:49:38.000Z</time>
      </trkpt>
      <trkpt lat="45.60262" lon="6.60454">
        <ele>2469.3</ele>
        <time>2013-12-08T11:50:09.000Z</time>
      </trkpt>
      <trkpt lat="45.60248" lon="6.60441">
        <ele>2472.2</ele>
        <time>2013-12-08T11:50:40.000Z</time>
      </trkpt>
      <trkpt lat="45.60231" lon="6.60445">
        <ele>2473.5</ele>
        <time>2013-12-08T11:51:10.000Z</time>
      </trkpt>
      <trkpt lat="45.60215" lon="6.60441">
        <ele>2479.6</ele>
        <time>2013-12-08T11:51:41.000Z</time>
      </trkpt>
      <trkpt lat="45.60213" lon="6.6044">
        <ele>2479.7</ele>
        <time>2013-12-08T11:52:12.000Z</time>
      </trkpt>
      <trkpt lat="45.60213" lon="6.6044">
        <ele>2479.9</ele>
        <time>2013-12-08T11:52:43.000Z</time>
      </trkpt>
      <trkpt lat="45.60221" lon="6.60425">
        <ele>2483</ele>
        <time>2013-12-08T11:53:14.000Z</time>
      </trkpt>
      <trkpt lat="45.60231" lon="6.60402">
        <ele>2489.9</ele>
        <time>2013-12-08T11:53:45.000Z</time>
      </trkpt>
      <trkpt lat="45.60235" lon="6.60383">
        <ele>2493.5</ele>
        <time>2013-12-08T11:54:15.000Z</time>
      </trkpt>
      <trkpt lat="45.60239" lon="6.60373">
        <ele>2498.3</ele>
        <time>2013-12-08T11:54:46.000Z</time>
      </trkpt>
      <trkpt lat="45.6024" lon="6.60376">
        <ele>2501.9</ele>
        <time>2013-12-08T11:55:17.000Z</time>
      </trkpt>
      <trkpt lat="45.60244" lon="6.60352">
        <ele>2509.6</ele>
        <time>2013-12-08T11:55:47.000Z</time>
      </trkpt>
      <trkpt lat="45.60245" lon="6.60335">
        <ele>2512.5</ele>
        <time>2013-12-08T11:56:18.000Z</time>
      </trkpt>
      <trkpt lat="45.60247" lon="6.60316">
        <ele>2514.9</ele>
        <time>2013-12-08T11:56:49.000Z</time>
      </trkpt>
      <trkpt lat="45.60247" lon="6.60291">
        <ele>2518.7</ele>
        <time>2013-12-08T11:57:20.000Z</time>
      </trkpt>
      <trkpt lat="45.60244" lon="6.60282">
        <ele>2520.2</ele>
        <time>2013-12-08T11:57:51.000Z</time>
      </trkpt>
      <trkpt lat="45.60242" lon="6.60262">
        <ele>2521.9</ele>
        <time>2013-12-08T11:58:22.000Z</time>
      </trkpt>
      <trkpt lat="45.60239" lon="6.60232">
        <ele>2526</ele>
        <time>2013-12-08T11:58:53.000Z</time>
      </trkpt>
      <trkpt lat="45.60245" lon="6.60226">
        <ele>2533.5</ele>
        <time>2013-12-08T11:59:24.000Z</time>
      </trkpt>
      <trkpt lat="45.60254" lon="6.60239">
        <ele>2538.1</ele>
        <time>2013-12-08T11:59:54.000Z</time>
      </trkpt>
      <trkpt lat="45.60263" lon="6.60242">
        <ele>2538.1</ele>
        <time>2013-12-08T12:00:25.000Z</time>
      </trkpt>
      <trkpt lat="45.60281" lon="6.60253">
        <ele>2539</ele>
        <time>2013-12-08T12:00:55.000Z</time>
      </trkpt>
      <trkpt lat="45.60287" lon="6.60262">
        <ele>2539.1</ele>
        <time>2013-12-08T12:01:26.000Z</time>
      </trkpt>
      <trkpt lat="45.60294" lon="6.60285">
        <ele>2543.8</ele>
        <time>2013-12-08T12:01:58.000Z</time>
      </trkpt>
      <trkpt lat="45.60297" lon="6.60266">
        <ele>2551.6</ele>
        <time>2013-12-08T12:02:29.000Z</time>
      </trkpt>
      <trkpt lat="45.60297" lon="6.60261">
        <ele>2553.8</ele>
        <time>2013-12-08T12:02:59.000Z</time>
      </trkpt>
      <trkpt lat="45.60291" lon="6.60241">
        <ele>2554.8</ele>
        <time>2013-12-08T12:03:29.000Z</time>
      </trkpt>
      <trkpt lat="45.60289" lon="6.60219">
        <ele>2559.6</ele>
        <time>2013-12-08T12:04:00.000Z</time>
      </trkpt>
      <trkpt lat="45.60285" lon="6.60203">
        <ele>2563.7</ele>
        <time>2013-12-08T12:04:31.000Z</time>
      </trkpt>
      <trkpt lat="45.60284" lon="6.60203">
        <ele>2566</ele>
        <time>2013-12-08T12:05:01.000Z</time>
      </trkpt>
      <trkpt lat="45.60283" lon="6.60203">
        <ele>2567.1</ele>
        <time>2013-12-08T12:05:32.000Z</time>
      </trkpt>
      <trkpt lat="45.60281" lon="6.60203">
        <ele>2567.2</ele>
        <time>2013-12-08T12:06:03.000Z</time>
      </trkpt>
      <trkpt lat="45.60281" lon="6.60203">
        <ele>2567.6</ele>
        <time>2013-12-08T12:06:34.000Z</time>
      </trkpt>
      <trkpt lat="45.60281" lon="6.60203">
        <ele>2567.6</ele>
        <time>2013-12-08T12:07:05.000Z</time>
      </trkpt>
      <trkpt lat="45.6028" lon="6.60204">
        <ele>2567.6</ele>
        <time>2013-12-08T12:07:35.000Z</time>
      </trkpt>
      <trkpt lat="45.60279" lon="6.60205">
        <ele>2567.6</ele>
        <time>2013-12-08T12:08:06.000Z</time>
      </trkpt>
      <trkpt lat="45.60279" lon="6.60205">
        <ele>2567.6</ele>
        <time>2013-12-08T12:08:37.000Z</time>
      </trkpt>
      <trkpt lat="45.60281" lon="6.60204">
        <ele>2567.6</ele>
        <time>2013-12-08T12:09:08.000Z</time>
      </trkpt>
      <trkpt lat="45.60279" lon="6.60205">
        <ele>2567.7</ele>
        <time>2013-12-08T12:09:38.000Z</time>
      </trkpt>
      <trkpt lat="45.6028" lon="6.60205">
        <ele>2567.7</ele>
        <time>2013-12-08T12:10:09.000Z</time>
      </trkpt>
      <trkpt lat="45.60281" lon="6.60203">
        <ele>2567.7</ele>
        <time>2013-12-08T12:10:39.000Z</time>
      </trkpt>
      <trkpt lat="45.60281" lon="6.60204">
        <ele>2567.7</ele>
        <time>2013-12-08T12:11:10.000Z</time>
      </trkpt>
      <trkpt lat="45.60281" lon="6.60204">
        <ele>2567.7</ele>
        <time>2013-12-08T12:11:40.000Z</time>
      </trkpt>
      <trkpt lat="45.60281" lon="6.60204">
        <ele>2567.5</ele>
        <time>2013-12-08T12:12:11.000Z</time>
      </trkpt>
      <trkpt lat="45.60282" lon="6.60202">
        <ele>2565.6</ele>
        <time>2013-12-08T12:12:42.000Z</time>
      </trkpt>
      <trkpt lat="45.60282" lon="6.60202">
        <ele>2565.6</ele>
        <time>2013-12-08T12:13:13.000Z</time>
      </trkpt>
      <trkpt lat="45.60282" lon="6.60202">
        <ele>2565.5</ele>
        <time>2013-12-08T12:13:44.000Z</time>
      </trkpt>
      <trkpt lat="45.60282" lon="6.60202">
        <ele>2565.5</ele>
        <time>2013-12-08T12:14:15.000Z</time>
      </trkpt>
      <trkpt lat="45.60283" lon="6.602">
        <ele>2564.6</ele>
        <time>2013-12-08T12:14:46.000Z</time>
      </trkpt>
      <trkpt lat="45.60284" lon="6.602">
        <ele>2564.6</ele>
        <time>2013-12-08T12:15:17.000Z</time>
      </trkpt>
      <trkpt lat="45.60283" lon="6.60201">
        <ele>2564.6</ele>
        <time>2013-12-08T12:15:48.000Z</time>
      </trkpt>
      <trkpt lat="45.60283" lon="6.60202">
        <ele>2565</ele>
        <time>2013-12-08T12:16:19.000Z</time>
      </trkpt>
      <trkpt lat="45.60283" lon="6.60202">
        <ele>2565</ele>
        <time>2013-12-08T12:16:50.000Z</time>
      </trkpt>
      <trkpt lat="45.60283" lon="6.60202">
        <ele>2565</ele>
        <time>2013-12-08T12:17:20.000Z</time>
      </trkpt>
      <trkpt lat="45.60283" lon="6.60202">
        <ele>2562.3</ele>
        <time>2013-12-08T12:17:50.000Z</time>
      </trkpt>
      <trkpt lat="45.60283" lon="6.60202">
        <ele>2562.3</ele>
        <time>2013-12-08T12:18:21.000Z</time>
      </trkpt>
      <trkpt lat="45.60283" lon="6.60202">
        <ele>2562.3</ele>
        <time>2013-12-08T12:18:51.000Z</time>
      </trkpt>
      <trkpt lat="45.60283" lon="6.60202">
        <ele>2562.3</ele>
        <time>2013-12-08T12:19:22.000Z</time>
      </trkpt>
      <trkpt lat="45.60283" lon="6.60202">
        <ele>2562.3</ele>
        <time>2013-12-08T12:19:52.000Z</time>
      </trkpt>
      <trkpt lat="45.60283" lon="6.60202">
        <ele>2562.3</ele>
        <time>2013-12-08T12:20:23.000Z</time>
      </trkpt>
      <trkpt lat="45.60281" lon="6.60204">
        <ele>2564</ele>
        <time>2013-12-08T12:20:53.000Z</time>
      </trkpt>
      <trkpt lat="45.6028" lon="6.60205">
        <ele>2564.6</ele>
        <time>2013-12-08T12:21:24.000Z</time>
      </trkpt>
      <trkpt lat="45.6028" lon="6.60205">
        <ele>2564.6</ele>
        <time>2013-12-08T12:21:55.000Z</time>
      </trkpt>
      <trkpt lat="45.6028" lon="6.60205">
        <ele>2564.6</ele>
        <time>2013-12-08T12:22:25.000Z</time>
      </trkpt>
      <trkpt lat="45.60281" lon="6.60203">
        <ele>2563.1</ele>
        <time>2013-12-08T12:22:56.000Z</time>
      </trkpt>
      <trkpt lat="45.60281" lon="6.60203">
        <ele>2563.1</ele>
        <time>2013-12-08T12:23:27.000Z</time>
      </trkpt>
      <trkpt lat="45.60281" lon="6.60202">
        <ele>2563.1</ele>
        <time>2013-12-08T12:23:58.000Z</time>
      </trkpt>
      <trkpt lat="45.60281" lon="6.60202">
        <ele>2563.2</ele>
        <time>2013-12-08T12:24:28.000Z</time>
      </trkpt>
      <trkpt lat="45.6028" lon="6.60202">
        <ele>2563.7</ele>
        <time>2013-12-08T12:24:58.000Z</time>
      </trkpt>
      <trkpt lat="45.60281" lon="6.60205">
        <ele>2563.7</ele>
        <time>2013-12-08T12:25:30.000Z</time>
      </trkpt>
      <trkpt lat="45.60281" lon="6.60204">
        <ele>2563.7</ele>
        <time>2013-12-08T12:26:00.000Z</time>
      </trkpt>
      <trkpt lat="45.60281" lon="6.60204">
        <ele>2563.6</ele>
        <time>2013-12-08T12:26:31.000Z</time>
      </trkpt>
      <trkpt lat="45.60281" lon="6.60204">
        <ele>2563.6</ele>
        <time>2013-12-08T12:27:02.000Z</time>
      </trkpt>
      <trkpt lat="45.60281" lon="6.60203">
        <ele>2563.5</ele>
        <time>2013-12-08T12:27:33.000Z</time>
      </trkpt>
      <trkpt lat="45.60281" lon="6.60204">
        <ele>2562.8</ele>
        <time>2013-12-08T12:28:04.000Z</time>
      </trkpt>
      <trkpt lat="45.60281" lon="6.60203">
        <ele>2561.7</ele>
        <time>2013-12-08T12:28:34.000Z</time>
      </trkpt>
      <trkpt lat="45.60281" lon="6.60202">
        <ele>2561</ele>
        <time>2013-12-08T12:29:05.000Z</time>
      </trkpt>
      <trkpt lat="45.60281" lon="6.60202">
        <ele>2560.9</ele>
        <time>2013-12-08T12:29:36.000Z</time>
      </trkpt>
      <trkpt lat="45.6028" lon="6.60202">
        <ele>2560.7</ele>
        <time>2013-12-08T12:30:06.000Z</time>
      </trkpt>
      <trkpt lat="45.60279" lon="6.60203">
        <ele>2560.3</ele>
        <time>2013-12-08T12:30:37.000Z</time>
      </trkpt>
      <trkpt lat="45.60282" lon="6.60199">
        <ele>2559.9</ele>
        <time>2013-12-08T12:31:07.000Z</time>
      </trkpt>
      <trkpt lat="45.6028" lon="6.60199">
        <ele>2559.5</ele>
        <time>2013-12-08T12:31:38.000Z</time>
      </trkpt>
      <trkpt lat="45.6028" lon="6.60199">
        <ele>2558.6</ele>
        <time>2013-12-08T12:32:09.000Z</time>
      </trkpt>
      <trkpt lat="45.60279" lon="6.60201">
        <ele>2558</ele>
        <time>2013-12-08T12:32:40.000Z</time>
      </trkpt>
      <trkpt lat="45.6028" lon="6.60201">
        <ele>2557.9</ele>
        <time>2013-12-08T12:33:11.000Z</time>
      </trkpt>
      <trkpt lat="45.6028" lon="6.602">
        <ele>2557.9</ele>
        <time>2013-12-08T12:33:42.000Z</time>
      </trkpt>
      <trkpt lat="45.6028" lon="6.602">
        <ele>2556.6</ele>
        <time>2013-12-08T12:34:12.000Z</time>
      </trkpt>
      <trkpt lat="45.60279" lon="6.60201">
        <ele>2556.6</ele>
        <time>2013-12-08T12:34:43.000Z</time>
      </trkpt>
      <trkpt lat="45.60279" lon="6.60201">
        <ele>2556.6</ele>
        <time>2013-12-08T12:35:14.000Z</time>
      </trkpt>
      <trkpt lat="45.60278" lon="6.602">
        <ele>2557.6</ele>
        <time>2013-12-08T12:35:45.000Z</time>
      </trkpt>
      <trkpt lat="45.60279" lon="6.60201">
        <ele>2557.6</ele>
        <time>2013-12-08T12:36:15.000Z</time>
      </trkpt>
      <trkpt lat="45.60279" lon="6.60201">
        <ele>2557.6</ele>
        <time>2013-12-08T12:36:46.000Z</time>
      </trkpt>
      <trkpt lat="45.60287" lon="6.60257">
        <ele>2545.9</ele>
        <time>2013-12-08T12:37:17.000Z</time>
      </trkpt>
      <trkpt lat="45.60284" lon="6.60257">
        <ele>2544.3</ele>
        <time>2013-12-08T12:37:48.000Z</time>
      </trkpt>
      <trkpt lat="45.60285" lon="6.60256">
        <ele>2541.9</ele>
        <time>2013-12-08T12:38:19.000Z</time>
      </trkpt>
      <trkpt lat="45.60285" lon="6.60255">
        <ele>2541.9</ele>
        <time>2013-12-08T12:38:50.000Z</time>
      </trkpt>
      <trkpt lat="45.60265" lon="6.60294">
        <ele>2522.6</ele>
        <time>2013-12-08T12:39:20.000Z</time>
      </trkpt>
      <trkpt lat="45.6026" lon="6.60289">
        <ele>2516.9</ele>
        <time>2013-12-08T12:39:50.000Z</time>
      </trkpt>
      <trkpt lat="45.60241" lon="6.60363">
        <ele>2497.8</ele>
        <time>2013-12-08T12:40:20.000Z</time>
      </trkpt>
      <trkpt lat="45.60241" lon="6.6036">
        <ele>2497.6</ele>
        <time>2013-12-08T12:40:51.000Z</time>
      </trkpt>
      <trkpt lat="45.60237" lon="6.60363">
        <ele>2495.4</ele>
        <time>2013-12-08T12:41:22.000Z</time>
      </trkpt>
      <trkpt lat="45.60155" lon="6.60423">
        <ele>2466.3</ele>
        <time>2013-12-08T12:41:54.000Z</time>
      </trkpt>
      <trkpt lat="45.60141" lon="6.60442">
        <ele>2460.1</ele>
        <time>2013-12-08T12:42:25.000Z</time>
      </trkpt>
      <trkpt lat="45.6014" lon="6.60441">
        <ele>2457.3</ele>
        <time>2013-12-08T12:42:56.000Z</time>
      </trkpt>
      <trkpt lat="45.6014" lon="6.60441">
        <ele>2457.1</ele>
        <time>2013-12-08T12:43:26.000Z</time>
      </trkpt>
      <trkpt lat="45.60124" lon="6.60507">
        <ele>2445.5</ele>
        <time>2013-12-08T12:43:56.000Z</time>
      </trkpt>
      <trkpt lat="45.60059" lon="6.60586">
        <ele>2428.6</ele>
        <time>2013-12-08T12:44:27.000Z</time>
      </trkpt>
      <trkpt lat="45.60058" lon="6.60588">
        <ele>2426.9</ele>
        <time>2013-12-08T12:44:58.000Z</time>
      </trkpt>
      <trkpt lat="45.60058" lon="6.60589">
        <ele>2426.3</ele>
        <time>2013-12-08T12:45:29.000Z</time>
      </trkpt>
      <trkpt lat="45.60014" lon="6.60621">
        <ele>2412.8</ele>
        <time>2013-12-08T12:46:00.000Z</time>
      </trkpt>
      <trkpt lat="45.59966" lon="6.60611">
        <ele>2406.4</ele>
        <time>2013-12-08T12:46:31.000Z</time>
      </trkpt>
      <trkpt lat="45.59941" lon="6.60664">
        <ele>2405.1</ele>
        <time>2013-12-08T12:47:02.000Z</time>
      </trkpt>
      <trkpt lat="45.59937" lon="6.60665">
        <ele>2403.2</ele>
        <time>2013-12-08T12:47:32.000Z</time>
      </trkpt>
      <trkpt lat="45.59933" lon="6.60671">
        <ele>2403.2</ele>
        <time>2013-12-08T12:48:03.000Z</time>
      </trkpt>
      <trkpt lat="45.59929" lon="6.60676">
        <ele>2401.2</ele>
        <time>2013-12-08T12:48:34.000Z</time>
      </trkpt>
      <trkpt lat="45.59974" lon="6.6077">
        <ele>2372.4</ele>
        <time>2013-12-08T12:49:05.000Z</time>
      </trkpt>
      <trkpt lat="45.59956" lon="6.60799">
        <ele>2362.4</ele>
        <time>2013-12-08T12:49:35.000Z</time>
      </trkpt>
      <trkpt lat="45.59956" lon="6.60799">
        <ele>2361.3</ele>
        <time>2013-12-08T12:50:06.000Z</time>
      </trkpt>
      <trkpt lat="45.59916" lon="6.60856">
        <ele>2356</ele>
        <time>2013-12-08T12:50:36.000Z</time>
      </trkpt>
      <trkpt lat="45.59889" lon="6.60952">
        <ele>2353</ele>
        <time>2013-12-08T12:51:07.000Z</time>
      </trkpt>
      <trkpt lat="45.59886" lon="6.60952">
        <ele>2353</ele>
        <time>2013-12-08T12:51:37.000Z</time>
      </trkpt>
      <trkpt lat="45.59918" lon="6.61029">
        <ele>2314.9</ele>
        <time>2013-12-08T12:52:08.000Z</time>
      </trkpt>
      <trkpt lat="45.59923" lon="6.61075">
        <ele>2291.1</ele>
        <time>2013-12-08T12:52:39.000Z</time>
      </trkpt>
      <trkpt lat="45.59923" lon="6.61075">
        <ele>2290.4</ele>
        <time>2013-12-08T12:53:10.000Z</time>
      </trkpt>
      <trkpt lat="45.59922" lon="6.61074">
        <ele>2287</ele>
        <time>2013-12-08T12:53:41.000Z</time>
      </trkpt>
      <trkpt lat="45.59922" lon="6.61073">
        <ele>2287</ele>
        <time>2013-12-08T12:54:11.000Z</time>
      </trkpt>
      <trkpt lat="45.59981" lon="6.61081">
        <ele>2260.4</ele>
        <time>2013-12-08T12:54:42.000Z</time>
      </trkpt>
      <trkpt lat="45.60075" lon="6.6124">
        <ele>2230.7</ele>
        <time>2013-12-08T12:55:13.000Z</time>
      </trkpt>
      <trkpt lat="45.60074" lon="6.61239">
        <ele>2229.9</ele>
        <time>2013-12-08T12:55:44.000Z</time>
      </trkpt>
      <trkpt lat="45.60074" lon="6.6124">
        <ele>2229.6</ele>
        <time>2013-12-08T12:56:15.000Z</time>
      </trkpt>
      <trkpt lat="45.60067" lon="6.61236">
        <ele>2228.5</ele>
        <time>2013-12-08T12:56:46.000Z</time>
      </trkpt>
      <trkpt lat="45.60062" lon="6.61231">
        <ele>2228.5</ele>
        <time>2013-12-08T12:57:17.000Z</time>
      </trkpt>
      <trkpt lat="45.60071" lon="6.61244">
        <ele>2227.9</ele>
        <time>2013-12-08T12:57:48.000Z</time>
      </trkpt>
      <trkpt lat="45.60071" lon="6.61244">
        <ele>2226.9</ele>
        <time>2013-12-08T12:58:19.000Z</time>
      </trkpt>
      <trkpt lat="45.60072" lon="6.6125">
        <ele>2226.9</ele>
        <time>2013-12-08T12:58:50.000Z</time>
      </trkpt>
      <trkpt lat="45.6007" lon="6.61261">
        <ele>2226.9</ele>
        <time>2013-12-08T12:59:21.000Z</time>
      </trkpt>
      <trkpt lat="45.6007" lon="6.61261">
        <ele>2226.8</ele>
        <time>2013-12-08T12:59:52.000Z</time>
      </trkpt>
      <trkpt lat="45.60079" lon="6.61368">
        <ele>2221.6</ele>
        <time>2013-12-08T13:00:23.000Z</time>
      </trkpt>
      <trkpt lat="45.60126" lon="6.61492">
        <ele>2214.5</ele>
        <time>2013-12-08T13:00:53.000Z</time>
      </trkpt>
      <trkpt lat="45.60126" lon="6.61532">
        <ele>2213.8</ele>
        <time>2013-12-08T13:01:23.000Z</time>
      </trkpt>
      <trkpt lat="45.60126" lon="6.61534">
        <ele>2212.5</ele>
        <time>2013-12-08T13:01:54.000Z</time>
      </trkpt>
      <trkpt lat="45.60129" lon="6.61583">
        <ele>2212.2</ele>
        <time>2013-12-08T13:02:25.000Z</time>
      </trkpt>
      <trkpt lat="45.60125" lon="6.61669">
        <ele>2205.3</ele>
        <time>2013-12-08T13:02:55.000Z</time>
      </trkpt>
      <trkpt lat="45.60126" lon="6.61762">
        <ele>2199</ele>
        <time>2013-12-08T13:03:25.000Z</time>
      </trkpt>
      <trkpt lat="45.60126" lon="6.61764">
        <ele>2196.6</ele>
        <time>2013-12-08T13:03:56.000Z</time>
      </trkpt>
      <trkpt lat="45.60141" lon="6.61855">
        <ele>2186.3</ele>
        <time>2013-12-08T13:04:26.000Z</time>
      </trkpt>
      <trkpt lat="45.60139" lon="6.61862">
        <ele>2182</ele>
        <time>2013-12-08T13:04:57.000Z</time>
      </trkpt>
      <trkpt lat="45.60139" lon="6.61862">
        <ele>2181.8</ele>
        <time>2013-12-08T13:05:27.000Z</time>
      </trkpt>
      <trkpt lat="45.60143" lon="6.61942">
        <ele>2170.7</ele>
        <time>2013-12-08T13:05:57.000Z</time>
      </trkpt>
      <trkpt lat="45.60146" lon="6.62128">
        <ele>2158.4</ele>
        <time>2013-12-08T13:06:27.000Z</time>
      </trkpt>
      <trkpt lat="45.60209" lon="6.62245">
        <ele>2146</ele>
        <time>2013-12-08T13:06:58.000Z</time>
      </trkpt>
      <trkpt lat="45.60239" lon="6.62237">
        <ele>2144</ele>
        <time>2013-12-08T13:07:28.000Z</time>
      </trkpt>
      <trkpt lat="45.60241" lon="6.62237">
        <ele>2141.1</ele>
        <time>2013-12-08T13:07:58.000Z</time>
      </trkpt>
      <trkpt lat="45.60257" lon="6.6223">
        <ele>2133.6</ele>
        <time>2013-12-08T13:08:29.000Z</time>
      </trkpt>
      <trkpt lat="45.60349" lon="6.62167">
        <ele>2126.2</ele>
        <time>2013-12-08T13:09:00.000Z</time>
      </trkpt>
      <trkpt lat="45.60358" lon="6.62149">
        <ele>2116.2</ele>
        <time>2013-12-08T13:09:31.000Z</time>
      </trkpt>
      <trkpt lat="45.60357" lon="6.6215">
        <ele>2116.2</ele>
        <time>2013-12-08T13:10:02.000Z</time>
      </trkpt>
      <trkpt lat="45.60357" lon="6.6215">
        <ele>2114.8</ele>
        <time>2013-12-08T13:10:33.000Z</time>
      </trkpt>
      <trkpt lat="45.60357" lon="6.6215">
        <ele>2114.8</ele>
        <time>2013-12-08T13:11:04.000Z</time>
      </trkpt>
      <trkpt lat="45.60355" lon="6.62146">
        <ele>2114.8</ele>
        <time>2013-12-08T13:11:35.000Z</time>
      </trkpt>
      <trkpt lat="45.60371" lon="6.62061">
        <ele>2105.5</ele>
        <time>2013-12-08T13:12:06.000Z</time>
      </trkpt>
      <trkpt lat="45.60366" lon="6.62057">
        <ele>2098.8</ele>
        <time>2013-12-08T13:12:37.000Z</time>
      </trkpt>
      <trkpt lat="45.60365" lon="6.62056">
        <ele>2095.5</ele>
        <time>2013-12-08T13:13:08.000Z</time>
      </trkpt>
      <trkpt lat="45.60365" lon="6.62056">
        <ele>2094.9</ele>
        <time>2013-12-08T13:13:39.000Z</time>
      </trkpt>
      <trkpt lat="45.60365" lon="6.62056">
        <ele>2093.3</ele>
        <time>2013-12-08T13:14:09.000Z</time>
      </trkpt>
      <trkpt lat="45.60363" lon="6.62054">
        <ele>2093.1</ele>
        <time>2013-12-08T13:14:39.000Z</time>
      </trkpt>
      <trkpt lat="45.60368" lon="6.62029">
        <ele>2091.6</ele>
        <time>2013-12-08T13:15:10.000Z</time>
      </trkpt>
      <trkpt lat="45.60397" lon="6.61996">
        <ele>2089.3</ele>
        <time>2013-12-08T13:15:41.000Z</time>
      </trkpt>
      <trkpt lat="45.60418" lon="6.61988">
        <ele>2088.9</ele>
        <time>2013-12-08T13:16:11.000Z</time>
      </trkpt>
      <trkpt lat="45.60469" lon="6.62007">
        <ele>2075.8</ele>
        <time>2013-12-08T13:16:42.000Z</time>
      </trkpt>
      <trkpt lat="45.6047" lon="6.62006">
        <ele>2072.3</ele>
        <time>2013-12-08T13:17:12.000Z</time>
      </trkpt>
      <trkpt lat="45.60468" lon="6.62005">
        <ele>2070.5</ele>
        <time>2013-12-08T13:17:43.000Z</time>
      </trkpt>
      <trkpt lat="45.60468" lon="6.62005">
        <ele>2070.3</ele>
        <time>2013-12-08T13:18:14.000Z</time>
      </trkpt>
      <trkpt lat="45.60468" lon="6.62004">
        <ele>2069.7</ele>
        <time>2013-12-08T13:18:44.000Z</time>
      </trkpt>
      <trkpt lat="45.60468" lon="6.62">
        <ele>2068.8</ele>
        <time>2013-12-08T13:19:15.000Z</time>
      </trkpt>
      <trkpt lat="45.6047" lon="6.62001">
        <ele>2064.1</ele>
        <time>2013-12-08T13:19:46.000Z</time>
      </trkpt>
      <trkpt lat="45.60506" lon="6.6204">
        <ele>2046.5</ele>
        <time>2013-12-08T13:20:17.000Z</time>
      </trkpt>
      <trkpt lat="45.60513" lon="6.62036">
        <ele>2037.7</ele>
        <time>2013-12-08T13:20:48.000Z</time>
      </trkpt>
      <trkpt lat="45.60514" lon="6.62035">
        <ele>2037.6</ele>
        <time>2013-12-08T13:21:18.000Z</time>
      </trkpt>
      <trkpt lat="45.60488" lon="6.6207">
        <ele>2031.6</ele>
        <time>2013-12-08T13:21:49.000Z</time>
      </trkpt>
      <trkpt lat="45.60485" lon="6.62109">
        <ele>2012.5</ele>
        <time>2013-12-08T13:22:20.000Z</time>
      </trkpt>
      <trkpt lat="45.60516" lon="6.62154">
        <ele>1993.3</ele>
        <time>2013-12-08T13:22:50.000Z</time>
      </trkpt>
      <trkpt lat="45.60516" lon="6.62151">
        <ele>1991.5</ele>
        <time>2013-12-08T13:23:21.000Z</time>
      </trkpt>
      <trkpt lat="45.60516" lon="6.62151">
        <ele>1991.5</ele>
        <time>2013-12-08T13:23:52.000Z</time>
      </trkpt>
      <trkpt lat="45.60508" lon="6.62182">
        <ele>1985.5</ele>
        <time>2013-12-08T13:24:22.000Z</time>
      </trkpt>
      <trkpt lat="45.60509" lon="6.62218">
        <ele>1978</ele>
        <time>2013-12-08T13:24:53.000Z</time>
      </trkpt>
      <trkpt lat="45.60509" lon="6.62219">
        <ele>1977.8</ele>
        <time>2013-12-08T13:25:24.000Z</time>
      </trkpt>
      <trkpt lat="45.60509" lon="6.62252">
        <ele>1968.7</ele>
        <time>2013-12-08T13:25:55.000Z</time>
      </trkpt>
      <trkpt lat="45.60522" lon="6.62261">
        <ele>1961.6</ele>
        <time>2013-12-08T13:26:26.000Z</time>
      </trkpt>
      <trkpt lat="45.60523" lon="6.62259">
        <ele>1961.2</ele>
        <time>2013-12-08T13:26:57.000Z</time>
      </trkpt>
      <trkpt lat="45.60522" lon="6.62258">
        <ele>1960.5</ele>
        <time>2013-12-08T13:27:28.000Z</time>
      </trkpt>
      <trkpt lat="45.60522" lon="6.62261">
        <ele>1958.9</ele>
        <time>2013-12-08T13:27:59.000Z</time>
      </trkpt>
      <trkpt lat="45.60521" lon="6.62265">
        <ele>1956.2</ele>
        <time>2013-12-08T13:28:30.000Z</time>
      </trkpt>
      <trkpt lat="45.60534" lon="6.62297">
        <ele>1944.4</ele>
        <time>2013-12-08T13:29:01.000Z</time>
      </trkpt>
      <trkpt lat="45.60542" lon="6.62314">
        <ele>1936.4</ele>
        <time>2013-12-08T13:29:32.000Z</time>
      </trkpt>
      <trkpt lat="45.60541" lon="6.62342">
        <ele>1928.8</ele>
        <time>2013-12-08T13:30:03.000Z</time>
      </trkpt>
      <trkpt lat="45.60553" lon="6.6236">
        <ele>1919.7</ele>
        <time>2013-12-08T13:30:34.000Z</time>
      </trkpt>
      <trkpt lat="45.60578" lon="6.6235">
        <ele>1900.4</ele>
        <time>2013-12-08T13:31:04.000Z</time>
      </trkpt>
      <trkpt lat="45.60595" lon="6.62336">
        <ele>1896.5</ele>
        <time>2013-12-08T13:31:35.000Z</time>
      </trkpt>
      <trkpt lat="45.60598" lon="6.62331">
        <ele>1895.1</ele>
        <time>2013-12-08T13:32:05.000Z</time>
      </trkpt>
      <trkpt lat="45.606" lon="6.6234">
        <ele>1893.7</ele>
        <time>2013-12-08T13:32:36.000Z</time>
      </trkpt>
      <trkpt lat="45.60601" lon="6.62336">
        <ele>1891</ele>
        <time>2013-12-08T13:33:07.000Z</time>
      </trkpt>
      <trkpt lat="45.606" lon="6.62331">
        <ele>1889.6</ele>
        <time>2013-12-08T13:33:37.000Z</time>
      </trkpt>
      <trkpt lat="45.60626" lon="6.6231">
        <ele>1881</ele>
        <time>2013-12-08T13:34:08.000Z</time>
      </trkpt>
      <trkpt lat="45.60658" lon="6.62348">
        <ele>1862.6</ele>
        <time>2013-12-08T13:34:38.000Z</time>
      </trkpt>
      <trkpt lat="45.60715" lon="6.6235">
        <ele>1848.2</ele>
        <time>2013-12-08T13:35:09.000Z</time>
      </trkpt>
      <trkpt lat="45.60715" lon="6.62352">
        <ele>1847.2</ele>
        <time>2013-12-08T13:35:40.000Z</time>
      </trkpt>
      <trkpt lat="45.6071" lon="6.62354">
        <ele>1845</ele>
        <time>2013-12-08T13:36:11.000Z</time>
      </trkpt>
      <trkpt lat="45.60745" lon="6.6239">
        <ele>1839.1</ele>
        <time>2013-12-08T13:36:42.000Z</time>
      </trkpt>
      <trkpt lat="45.60788" lon="6.62536">
        <ele>1809.8</ele>
        <time>2013-12-08T13:37:13.000Z</time>
      </trkpt>
      <trkpt lat="45.60775" lon="6.62564">
        <ele>1802.1</ele>
        <time>2013-12-08T13:37:44.000Z</time>
      </trkpt>
      <trkpt lat="45.60775" lon="6.62564">
        <ele>1802.1</ele>
        <time>2013-12-08T13:38:15.000Z</time>
      </trkpt>
      <trkpt lat="45.60775" lon="6.62564">
        <ele>1802.1</ele>
        <time>2013-12-08T13:38:46.000Z</time>
      </trkpt>
      <trkpt lat="45.60774" lon="6.62565">
        <ele>1801.1</ele>
        <time>2013-12-08T13:39:17.000Z</time>
      </trkpt>
      <trkpt lat="45.6067" lon="6.62688">
        <ele>1783</ele>
        <time>2013-12-08T13:39:48.000Z</time>
      </trkpt>
      <trkpt lat="45.60565" lon="6.62838">
        <ele>1766.8</ele>
        <time>2013-12-08T13:40:18.000Z</time>
      </trkpt>
      <trkpt lat="45.60592" lon="6.62861">
        <ele>1758.3</ele>
        <time>2013-12-08T13:40:48.000Z</time>
      </trkpt>
      <trkpt lat="45.60474" lon="6.63009">
        <ele>1739.4</ele>
        <time>2013-12-08T13:41:18.000Z</time>
      </trkpt>
      <trkpt lat="45.60348" lon="6.63181">
        <ele>1721.8</ele>
        <time>2013-12-08T13:41:49.000Z</time>
      </trkpt>
      <trkpt lat="45.60324" lon="6.63365">
        <ele>1709.4</ele>
        <time>2013-12-08T13:42:19.000Z</time>
      </trkpt>
      <trkpt lat="45.60322" lon="6.63371">
        <ele>1705.1</ele>
        <time>2013-12-08T13:42:50.000Z</time>
      </trkpt>
      <trkpt lat="45.60324" lon="6.63367">
        <ele>1701.3</ele>
        <time>2013-12-08T13:43:20.000Z</time>
      </trkpt>
      <trkpt lat="45.60324" lon="6.63367">
        <ele>1701.2</ele>
        <time>2013-12-08T13:43:51.000Z</time>
      </trkpt>
      <trkpt lat="45.60324" lon="6.63367">
        <ele>1701.2</ele>
        <time>2013-12-08T13:44:22.000Z</time>
      </trkpt>
      <trkpt lat="45.60323" lon="6.63365">
        <ele>1700.4</ele>
        <time>2013-12-08T13:44:53.000Z</time>
      </trkpt>
      <trkpt lat="45.60321" lon="6.63364">
        <ele>1699.9</ele>
        <time>2013-12-08T13:45:24.000Z</time>
      </trkpt>
      <trkpt lat="45.6032" lon="6.63361">
        <ele>1699.9</ele>
        <time>2013-12-08T13:45:55.000Z</time>
      </trkpt>
      <trkpt lat="45.6032" lon="6.63362">
        <ele>1697.9</ele>
        <time>2013-12-08T13:46:26.000Z</time>
      </trkpt>
      <trkpt lat="45.6032" lon="6.63362">
        <ele>1695</ele>
        <time>2013-12-08T13:46:57.000Z</time>
      </trkpt>
      <trkpt lat="45.60284" lon="6.63428">
        <ele>1694.8</ele>
        <time>2013-12-08T13:47:28.000Z</time>
      </trkpt>
      <trkpt lat="45.60281" lon="6.63595">
        <ele>1688.7</ele>
        <time>2013-12-08T13:47:58.000Z</time>
      </trkpt>
      <trkpt lat="45.60226" lon="6.63707">
        <ele>1671.4</ele>
        <time>2013-12-08T13:48:29.000Z</time>
      </trkpt>
      <trkpt lat="45.60159" lon="6.63772">
        <ele>1662.1</ele>
        <time>2013-12-08T13:49:00.000Z</time>
      </trkpt>
      <trkpt lat="45.60042" lon="6.64009">
        <ele>1642.2</ele>
        <time>2013-12-08T13:49:31.000Z</time>
      </trkpt>
      <trkpt lat="45.59885" lon="6.64193">
        <ele>1621.5</ele>
        <time>2013-12-08T13:50:01.000Z</time>
      </trkpt>
      <trkpt lat="45.5976" lon="6.64331">
        <ele>1604.1</ele>
        <time>2013-12-08T13:50:32.000Z</time>
      </trkpt>
      <trkpt lat="45.59652" lon="6.64443">
        <ele>1590.3</ele>
        <time>2013-12-08T13:51:02.000Z</time>
      </trkpt>
      <trkpt lat="45.59612" lon="6.6457">
        <ele>1579.1</ele>
        <time>2013-12-08T13:51:33.000Z</time>
      </trkpt>
      <trkpt lat="45.59561" lon="6.64524">
        <ele>1564.6</ele>
        <time>2013-12-08T13:52:04.000Z</time>
      </trkpt>
      <trkpt lat="45.59489" lon="6.64601">
        <ele>1545.8</ele>
        <time>2013-12-08T13:52:35.000Z</time>
      </trkpt>
      <trkpt lat="45.59345" lon="6.64783">
        <ele>1524.2</ele>
        <time>2013-12-08T13:53:06.000Z</time>
      </trkpt>
      <trkpt lat="45.59309" lon="6.64824">
        <ele>1516.4</ele>
        <time>2013-12-08T13:53:37.000Z</time>
      </trkpt>
      <trkpt lat="45.59311" lon="6.64823">
        <ele>1515.7</ele>
        <time>2013-12-08T13:54:08.000Z</time>
      </trkpt>
      <trkpt lat="45.59312" lon="6.64821">
        <ele>1513.3</ele>
        <time>2013-12-08T13:54:39.000Z</time>
      </trkpt>
      <trkpt lat="45.59312" lon="6.64819">
        <ele>1512.1</ele>
        <time>2013-12-08T13:55:10.000Z</time>
      </trkpt>
      <trkpt lat="45.59312" lon="6.6482">
        <ele>1512</ele>
        <time>2013-12-08T13:55:41.000Z</time>
      </trkpt>
      <trkpt lat="45.59312" lon="6.6482">
        <ele>1512</ele>
        <time>2013-12-08T13:56:12.000Z</time>
      </trkpt>
      <trkpt lat="45.59312" lon="6.6482">
        <ele>1512</ele>
        <time>2013-12-08T13:56:43.000Z</time>
      </trkpt>
      <trkpt lat="45.59312" lon="6.6482">
        <ele>1512</ele>
        <time>2013-12-08T13:57:14.000Z</time>
      </trkpt>
      <trkpt lat="45.59312" lon="6.6482">
        <ele>1512</ele>
        <time>2013-12-08T13:57:45.000Z</time>
      </trkpt>
      <trkpt lat="45.59312" lon="6.6482">
        <ele>1472</ele>
        <time>2013-12-08T13:58:15.000Z</time>
      </trkpt>
      <trkpt lat="45.59312" lon="6.6482">
        <ele>1471.8</ele>
        <time>2013-12-08T13:58:46.000Z</time>
      </trkpt>
    </trkseg>
  </trk>
</gpx>